Latest Flight | Flight Log | Engine Trends | Login | Join CirrusReports.com!
Date Range From To
Export:
Flight Log - NVXXX - Click on row to view flight. Click on header to sort.
Date Origin Dest Depart Arrive Hobbs Flight Time Flight Distance Fuel Fuel/hr Fuel/nm Altitude Gnd Speed
Wed, May 23, 2018     20:52 20:53 0.02 hrs 0.00 hrs 0.00 nm 0.00 gal 0.00 gal/hr 0.00 gal/nm 0 msl 0 kts
Mon, May 21, 2018 MMAN MMAN 20:17 20:22 0.09 hrs 0.00 hrs 0.00 nm 0.14 gal 1.70 gal/hr 0.00 gal/nm 0 msl 0 kts
Mon, May 21, 2018 MMAN MMAN 18:54 20:09 1.21 hrs 0.95 hrs 95.15 nm 9.94 gal 8.24 gal/hr 0.10 gal/nm 2697 msl 96 kts
Mon, May 21, 2018 MMAN MMAN 18:40 18:44 0.07 hrs 0.00 hrs 0.00 nm 0.12 gal 1.90 gal/hr 0.00 gal/nm 0 msl 0 kts
Mon, May 21, 2018 MMAN MMAN 16:47 18:29 1.66 hrs 1.41 hrs 164.25 nm 14.37 gal 8.68 gal/hr 0.09 gal/nm 3814 msl 113 kts
Mon, May 21, 2018 MMMV MMAN 15:17 16:27 1.17 hrs 0.86 hrs 100.08 nm 9.50 gal 8.13 gal/hr 0.09 gal/nm 5769 msl 116 kts
Mon, May 21, 2018 MMAN MMMV 13:47 15:01 1.23 hrs 0.86 hrs 108.91 nm 9.26 gal 7.56 gal/hr 0.09 gal/nm 4871 msl 126 kts
Mon, May 21, 2018 MMAN MMAN 13:29 13:40 0.19 hrs 0.00 hrs 0.00 nm 0.27 gal 1.42 gal/hr 0.00 gal/nm 0 msl 0 kts
Mon, May 21, 2018 MMAN MMAN 13:06 13:07 0.02 hrs 0.00 hrs 0.00 nm 0.00 gal 0.00 gal/hr 0.00 gal/nm 0 msl 0 kts
Mon, May 21, 2018 MMRX MMAN 11:36 12:49 1.19 hrs 0.97 hrs 122.41 nm 10.41 gal 8.72 gal/hr 0.09 gal/nm 6657 msl 122 kts
Mon, May 21, 2018 MMAN MMRX 10:07 11:20 1.19 hrs 0.95 hrs 112.65 nm 9.48 gal 7.97 gal/hr 0.08 gal/nm 5547 msl 116 kts
Mon, May 21, 2018 MMAN MMAN 09:56 09:58 0.04 hrs 0.00 hrs 0.00 nm 0.00 gal 0.00 gal/hr 0.00 gal/nm 0 msl 0 kts
Sat, May 19, 2018 MMAN MMAN 16:56 19:01 2.02 hrs 1.64 hrs 200.72 nm 16.95 gal 8.41 gal/hr 0.08 gal/nm 4717 msl 118 kts
Sat, May 19, 2018 MMAN MMAN 16:32 16:34 0.04 hrs 0.00 hrs 0.00 nm 0.00 gal 0.00 gal/hr 0.00 gal/nm 0 msl 0 kts
Sat, May 19, 2018 MMAN MMAN 12:18 12:42 0.4 hrs 0.00 hrs 0.00 nm 0.00 gal 0.00 gal/hr 0.00 gal/nm 0 msl 0 kts
Fri, May 18, 2018 MMAN MMAN 19:21 20:33 1.19 hrs 0.52 hrs 62.31 nm 6.40 gal 5.39 gal/hr 0.10 gal/nm 2579 msl 119 kts
Fri, May 18, 2018 MMAN MMAN 18:55 19:07 0.2 hrs 0.00 hrs 0.00 nm 0.27 gal 1.36 gal/hr 0.00 gal/nm 0 msl 0 kts
Fri, May 18, 2018 MMAN MMAN 15:56 17:08 1.18 hrs 0.88 hrs 104.39 nm 9.13 gal 7.73 gal/hr 0.09 gal/nm 2791 msl 117 kts
Fri, May 18, 2018     15:51 15:51 0 hrs 0.00 hrs 0.00 nm 0.00 gal 0.00 gal/hr 0.00 gal/nm 0 msl 0 kts
Fri, May 18, 2018 MMAN MMAN 12:56 15:23 2.45 hrs 1.66 hrs 207.18 nm 17.44 gal 7.12 gal/hr 0.08 gal/nm 6417 msl 125 kts
Thu, May 17, 2018 MMAN MMAN 21:25 23:06 1.65 hrs 1.34 hrs 168.20 nm 14.87 gal 8.99 gal/hr 0.09 gal/nm 7256 msl 123 kts
Thu, May 17, 2018 MMAN MMAN 20:57 21:03 0.1 hrs 0.00 hrs 0.00 nm 0.14 gal 1.43 gal/hr 0.00 gal/nm 0 msl 0 kts
Thu, May 17, 2018 MMAN MMAN 19:15 20:22 1.11 hrs 0.76 hrs 88.76 nm 7.54 gal 6.79 gal/hr 0.08 gal/nm 3677 msl 117 kts
Thu, May 17, 2018 MMAN MMAN 18:56 19:01 0.09 hrs 0.00 hrs 0.00 nm 0.15 gal 1.72 gal/hr 0.00 gal/nm 0 msl 0 kts
Thu, May 17, 2018 MMMV MMAN 17:24 18:39 1.21 hrs 0.97 hrs 115.27 nm 10.36 gal 8.54 gal/hr 0.09 gal/nm 9162 msl 115 kts
Thu, May 17, 2018 MMAN MMMV 15:12 16:51 1.61 hrs 1.18 hrs 153.81 nm 13.08 gal 8.12 gal/hr 0.09 gal/nm 10171 msl 126 kts
Thu, May 17, 2018 MMAN MMAN 14:28 14:30 0.04 hrs 0.00 hrs 0.00 nm 0.00 gal 0.00 gal/hr 0.00 gal/nm 0 msl 0 kts
Wed, May 16, 2018 MMRX MMAN 16:34 17:46 1.17 hrs 0.90 hrs 119.66 nm 10.63 gal 9.13 gal/hr 0.09 gal/nm 6534 msl 128 kts
Wed, May 16, 2018     16:27 16:27 0.01 hrs 0.00 hrs 0.00 nm 0.00 gal 0.00 gal/hr 0.00 gal/nm 0 msl 0 kts
Wed, May 16, 2018 MMAN MMRX 13:59 15:43 1.67 hrs 1.01 hrs 128.45 nm 12.14 gal 7.25 gal/hr 0.09 gal/nm 9185 msl 121 kts
Wed, May 16, 2018 MMAN MMAN 13:36 13:37 0.03 hrs 0.00 hrs 0.00 nm 0.00 gal 0.00 gal/hr 0.00 gal/nm 0 msl 0 kts
Tue, May 15, 2018     18:18 18:18 0.01 hrs 0.00 hrs 0.00 nm 0.00 gal 0.00 gal/hr 0.00 gal/nm 0 msl 0 kts
Tue, May 15, 2018 MMMV MMAN 17:09 18:16 1.09 hrs 0.82 hrs 97.77 nm 9.55 gal 8.80 gal/hr 0.10 gal/nm 7638 msl 116 kts
Tue, May 15, 2018 MMMV MMMV 17:02 17:04 0.03 hrs 0.00 hrs 0.00 nm 0.00 gal 0.00 gal/hr 0.00 gal/nm 0 msl 0 kts
Tue, May 15, 2018     17:00 17:00 0.01 hrs 0.00 hrs 0.00 nm 0.00 gal 0.00 gal/hr 0.00 gal/nm 0 msl 0 kts
Tue, May 15, 2018     16:53 16:53 0.01 hrs 0.00 hrs 0.00 nm 0.00 gal 0.00 gal/hr 0.00 gal/nm 0 msl 0 kts
Tue, May 15, 2018     16:48 16:49 0.02 hrs 0.00 hrs 0.00 nm 0.00 gal 0.00 gal/hr 0.00 gal/nm 0 msl 0 kts
Tue, May 15, 2018 MMAN MMMV 15:05 16:18 1.17 hrs 0.83 hrs 111.14 nm 9.86 gal 8.43 gal/hr 0.09 gal/nm 6642 msl 126 kts
Tue, May 15, 2018     14:48 14:49 0.02 hrs 0.00 hrs 0.00 nm 0.00 gal 0.00 gal/hr 0.00 gal/nm 0 msl 0 kts
Mon, May 14, 2018 MMAN MMAN 18:58 20:20 1.33 hrs 0.96 hrs 116.59 nm 10.47 gal 7.86 gal/hr 0.09 gal/nm 3180 msl 117 kts
Mon, May 14, 2018 MMAN MMAN 17:02 18:38 1.57 hrs 1.30 hrs 154.74 nm 13.07 gal 8.35 gal/hr 0.08 gal/nm 3659 msl 116 kts
Mon, May 14, 2018 MMAN MMAN 15:00 16:44 1.75 hrs 1.37 hrs 164.29 nm 13.88 gal 7.95 gal/hr 0.08 gal/nm 4754 msl 120 kts
Sun, May 13, 2018 MMMV MMAN 18:47 20:03 1.24 hrs 0.94 hrs 102.82 nm 9.82 gal 7.90 gal/hr 0.10 gal/nm 5751 msl 106 kts
Sun, May 13, 2018 MMNL MMMV 17:29 18:30 0.99 hrs 0.81 hrs 114.85 nm 10.20 gal 10.32 gal/hr 0.09 gal/nm 6313 msl 137 kts
Sun, May 13, 2018 MMAN MMNL 15:59 17:06 1.08 hrs 0.81 hrs 109.96 nm 8.47 gal 7.82 gal/hr 0.08 gal/nm 3619 msl 131 kts
Sun, May 13, 2018 MMAN MMAN 13:24 15:15 1.81 hrs 1.42 hrs 175.89 nm 14.75 gal 8.14 gal/hr 0.08 gal/nm 5368 msl 120 kts
Sun, May 13, 2018 MMAN MMAN 13:14 13:16 0.04 hrs 0.00 hrs 0.00 nm 0.00 gal 0.00 gal/hr 0.00 gal/nm 0 msl 0 kts
Sat, May 12, 2018 MMAN MMAN 21:06 22:29 1.37 hrs 0.94 hrs 110.87 nm 10.81 gal 7.91 gal/hr 0.10 gal/nm 8062 msl 114 kts
Sat, May 12, 2018 MMAN MMAN 20:11 20:12 0.03 hrs 0.00 hrs 0.00 nm 0.00 gal 0.00 gal/hr 0.00 gal/nm 0 msl 0 kts
Sat, May 12, 2018 MMAN MMAN 18:24 19:53 1.47 hrs 1.03 hrs 125.40 nm 10.76 gal 7.32 gal/hr 0.09 gal/nm 3629 msl 122 kts
Sat, May 12, 2018 MMAN MMAN 18:05 18:07 0.03 hrs 0.00 hrs 0.00 nm 0.00 gal 0.00 gal/hr 0.00 gal/nm 0 msl 0 kts
Sat, May 12, 2018 MMAN MMAN 16:11 17:19 1.1 hrs 0.74 hrs 91.53 nm 7.53 gal 6.87 gal/hr 0.08 gal/nm 2741 msl 119 kts
Sat, May 12, 2018     15:08 15:09 0.02 hrs 0.00 hrs 0.00 nm 0.00 gal 0.00 gal/hr 0.00 gal/nm 0 msl 0 kts
Sat, May 12, 2018     15:06 15:06 0.01 hrs 0.00 hrs 0.00 nm 0.00 gal 0.00 gal/hr 0.00 gal/nm 0 msl 0 kts
Sat, May 12, 2018 MMAN MMAN 13:35 14:56 1.3 hrs 1.04 hrs 105.38 nm 11.05 gal 8.51 gal/hr 0.10 gal/nm 2608 msl 97 kts
Sat, May 12, 2018     11:14 11:15 0.02 hrs 0.00 hrs 0.00 nm 0.00 gal 0.00 gal/hr 0.00 gal/nm 0 msl 0 kts
Sat, May 12, 2018 MMAN MMAN 09:37 09:39 0.04 hrs 0.00 hrs 0.00 nm 0.00 gal 0.00 gal/hr 0.00 gal/nm 0 msl 0 kts
Sat, May 12, 2018 MMAN MMAN 08:43 08:47 0.07 hrs 0.00 hrs 0.00 nm 0.00 gal 0.00 gal/hr 0.00 gal/nm 0 msl 0 kts
Sat, May 12, 2018 MMAN MMAN 07:48 07:51 0.06 hrs 0.00 hrs 0.00 nm 0.00 gal 0.00 gal/hr 0.00 gal/nm 0 msl 0 kts
Fri, May 11, 2018 MMAN MMAN 18:26 19:52 1.44 hrs 0.88 hrs 99.53 nm 8.77 gal 6.11 gal/hr 0.09 gal/nm 2637 msl 113 kts
Fri, May 11, 2018 MMAN MMAN 18:03 18:04 0.02 hrs 0.00 hrs 0.00 nm 0.00 gal 0.00 gal/hr 0.00 gal/nm 0 msl 0 kts
Fri, May 11, 2018 MMAN MMAN 15:09 16:44 1.59 hrs 1.21 hrs 148.63 nm 12.17 gal 7.67 gal/hr 0.08 gal/nm 3717 msl 122 kts
Fri, May 11, 2018 MMAN MMAN 14:49 14:51 0.04 hrs 0.00 hrs 0.00 nm 0.00 gal 0.00 gal/hr 0.00 gal/nm 0 msl 0 kts
Fri, May 11, 2018 MMAN MMAN 09:35 09:45 0.16 hrs 0.00 hrs 0.00 nm 0.49 gal 3.07 gal/hr 0.00 gal/nm 0 msl 0 kts
Thu, May 10, 2018 MMAN MMAN 20:44 21:13 0.49 hrs 0.00 hrs 0.00 nm 0.77 gal 1.59 gal/hr 0.00 gal/nm 0 msl 0 kts
Thu, May 10, 2018 MMAN MMAN 19:40 19:41 0.03 hrs 0.00 hrs 0.00 nm 0.00 gal 0.00 gal/hr 0.00 gal/nm 0 msl 0 kts
Thu, May 10, 2018 MMAN MMAN 19:06 19:12 0.11 hrs 0.00 hrs 0.00 nm 0.25 gal 2.35 gal/hr 0.00 gal/nm 0 msl 0 kts
Thu, May 10, 2018     18:18 18:18 0.01 hrs 0.00 hrs 0.00 nm 0.00 gal 0.00 gal/hr 0.00 gal/nm 0 msl 0 kts
Thu, May 10, 2018 MMMV MMAN 16:58 18:15 1.29 hrs 0.93 hrs 103.68 nm 10.04 gal 7.77 gal/hr 0.10 gal/nm 6303 msl 112 kts
Thu, May 10, 2018 MMAN MMMV 15:04 16:23 1.31 hrs 0.83 hrs 107.03 nm 9.28 gal 7.11 gal/hr 0.09 gal/nm 5321 msl 127 kts
Thu, May 10, 2018 MMAN MMAN 14:46 14:49 0.04 hrs 0.00 hrs 0.00 nm 0.00 gal 0.00 gal/hr 0.00 gal/nm 0 msl 0 kts
Thu, May 10, 2018 MMAN MMAN 11:36 13:07 1.52 hrs 0.98 hrs 103.21 nm 10.95 gal 7.20 gal/hr 0.11 gal/nm 2685 msl 105 kts
Thu, May 10, 2018 MMAN MMAN 11:10 11:12 0.03 hrs 0.00 hrs 0.00 nm 0.00 gal 0.00 gal/hr 0.00 gal/nm 0 msl 0 kts
Wed, May 9, 2018 MMAN MMAN 16:18 17:53 1.58 hrs 1.01 hrs 103.13 nm 8.48 gal 5.35 gal/hr 0.08 gal/nm 3447 msl 103 kts
Wed, May 9, 2018 MMAN MMAN 16:03 16:05 0.03 hrs 0.00 hrs 0.00 nm 0.00 gal 0.00 gal/hr 0.00 gal/nm 0 msl 0 kts
Tue, May 8, 2018 MMAN MMAN 20:44 22:14 1.47 hrs 1.08 hrs 139.67 nm 11.89 gal 8.07 gal/hr 0.09 gal/nm 9126 msl 127 kts
Tue, May 8, 2018 MMAN MMAN 20:08 20:11 0.05 hrs 0.00 hrs 0.00 nm 0.00 gal 0.00 gal/hr 0.00 gal/nm 0 msl 0 kts
Tue, May 8, 2018 MMMV MMAN 18:05 19:14 1.12 hrs 0.86 hrs 100.00 nm 9.37 gal 8.41 gal/hr 0.09 gal/nm 6002 msl 111 kts
Tue, May 8, 2018 MMMV MMMV 17:43 17:47 0.06 hrs 0.00 hrs 0.00 nm 0.06 gal 0.92 gal/hr 0.00 gal/nm 0 msl 0 kts
Tue, May 8, 2018 MMAN MMMV 15:58 17:08 1.15 hrs 0.85 hrs 112.02 nm 9.42 gal 8.23 gal/hr 0.08 gal/nm 4739 msl 127 kts
Tue, May 8, 2018     15:06 15:07 0 hrs 0.00 hrs 0.00 nm 0.00 gal 0.00 gal/hr 0.00 gal/nm 0 msl 0 kts
Tue, May 8, 2018 MMAN MMAN 15:03 15:05 0.02 hrs 0.00 hrs 0.00 nm 0.00 gal 0.00 gal/hr 0.00 gal/nm 0 msl 0 kts
Tue, May 8, 2018     15:01 15:01 0.01 hrs 0.00 hrs 0.00 nm 0.00 gal 0.00 gal/hr 0.00 gal/nm 0 msl 0 kts
Tue, May 8, 2018     14:41 14:41 0.01 hrs 0.00 hrs 0.00 nm 0.00 gal 0.00 gal/hr 0.00 gal/nm 0 msl 0 kts
Tue, May 8, 2018 MMTM MMAN 12:21 14:40 2.26 hrs 1.99 hrs 263.14 nm 19.55 gal 8.66 gal/hr 0.07 gal/nm 6737 msl 128 kts
Tue, May 8, 2018 MMAN MMTM 09:16 11:39 2.31 hrs 1.99 hrs 252.81 nm 19.22 gal 8.32 gal/hr 0.08 gal/nm 5743 msl 123 kts
Tue, May 8, 2018 MMAN MMAN 08:22 08:29 0.11 hrs 0.00 hrs 0.00 nm 0.00 gal 0.00 gal/hr 0.00 gal/nm 0 msl 0 kts
Mon, May 7, 2018 MMAN MMAN 20:58 22:22 1.38 hrs 1.01 hrs 124.86 nm 11.30 gal 8.21 gal/hr 0.09 gal/nm 8070 msl 120 kts
Mon, May 7, 2018 MMAN MMAN 18:58 20:05 1.1 hrs 0.63 hrs 76.53 nm 6.55 gal 5.97 gal/hr 0.09 gal/nm 2732 msl 117 kts
Mon, May 7, 2018     18:41 18:42 0.02 hrs 0.00 hrs 0.00 nm 0.00 gal 0.00 gal/hr 0.00 gal/nm 0 msl 0 kts
Mon, May 7, 2018 MMAN MMAN 17:07 18:11 1.05 hrs 0.73 hrs 89.47 nm 7.86 gal 7.46 gal/hr 0.09 gal/nm 2627 msl 121 kts
Mon, May 7, 2018     17:00 17:01 0.02 hrs 0.00 hrs 0.00 nm 0.00 gal 0.00 gal/hr 0.00 gal/nm 0 msl 0 kts
Mon, May 7, 2018 MMAN MMAN 15:17 16:39 1.36 hrs 1.00 hrs 118.86 nm 10.08 gal 7.40 gal/hr 0.08 gal/nm 3609 msl 119 kts
Mon, May 7, 2018 MMAN MMAN 14:13 14:13 0.02 hrs 0.00 hrs 0.00 nm 0.00 gal 0.00 gal/hr 0.00 gal/nm 0 msl 0 kts
Mon, May 7, 2018 MMAN MMAN 14:07 14:10 0.05 hrs 0.00 hrs 0.00 nm 0.00 gal 0.00 gal/hr 0.00 gal/nm 0 msl 0 kts
Fri, May 4, 2018     19:01 19:01 0.01 hrs 0.00 hrs 0.00 nm 0.00 gal 0.00 gal/hr 0.00 gal/nm 0 msl 0 kts
Fri, May 4, 2018 MMAN MMAN 16:57 18:52 1.83 hrs 1.52 hrs 194.59 nm 16.92 gal 9.23 gal/hr 0.09 gal/nm 4460 msl 123 kts
Fri, May 4, 2018     16:41 16:41 0.02 hrs 0.00 hrs 0.00 nm 0.00 gal 0.00 gal/hr 0.00 gal/nm 0 msl 0 kts
Fri, May 4, 2018 MMAN MMAN 11:44 11:57 0.22 hrs 0.00 hrs 0.00 nm 0.73 gal 3.39 gal/hr 0.00 gal/nm 0 msl 0 kts
Thu, May 3, 2018     11:24 11:24 0.02 hrs 0.00 hrs 0.00 nm 0.04 gal 2.47 gal/hr 0.00 gal/nm 0 msl 0 kts
Wed, May 2, 2018     15:52 15:52 0.01 hrs 0.00 hrs 0.00 nm 0.00 gal 0.00 gal/hr 0.00 gal/nm 0 msl 0 kts
Wed, May 2, 2018     14:27 14:29 0.04 hrs 0.00 hrs 0.00 nm 0.01 gal 0.31 gal/hr 0.00 gal/nm 0 msl 0 kts
Wed, May 2, 2018 MMAN MMAN 14:19 14:23 0.06 hrs 0.00 hrs 0.00 nm 0.00 gal 0.00 gal/hr 0.00 gal/nm 0 msl 0 kts
Mon, Apr 30, 2018     16:00 16:01 0.01 hrs 0.00 hrs 0.00 nm 0.00 gal 0.00 gal/hr 0.00 gal/nm 0 msl 0 kts
Mon, Apr 30, 2018 MMAN MMAN 15:07 15:20 0.22 hrs 0.00 hrs 0.00 nm 0.74 gal 3.42 gal/hr 0.00 gal/nm 0 msl 0 kts
Sun, Apr 29, 2018     20:02 20:03 0.01 hrs 0.00 hrs 0.00 nm 0.00 gal 0.00 gal/hr 0.00 gal/nm 0 msl 0 kts
Sat, Apr 28, 2018 MMMV MMAN 17:25 18:33 1.1 hrs 0.87 hrs 105.41 nm 10.53 gal 9.61 gal/hr 0.10 gal/nm 7581 msl 116 kts
Sat, Apr 28, 2018 MMAN MMMV 15:26 16:35 1.12 hrs 0.85 hrs 116.37 nm 10.96 gal 9.78 gal/hr 0.09 gal/nm 8736 msl 132 kts
Sat, Apr 28, 2018 MMAN MMAN 14:58 15:04 0.11 hrs 0.00 hrs 0.00 nm 0.20 gal 1.95 gal/hr 0.00 gal/nm 0 msl 0 kts
Sat, Apr 28, 2018 MMAN MMAN 14:43 14:44 0.02 hrs 0.00 hrs 0.00 nm 0.00 gal 0.00 gal/hr 0.00 gal/nm 0 msl 0 kts
Sat, Apr 28, 2018     14:41 14:42 0.01 hrs 0.00 hrs 0.00 nm 0.00 gal 0.00 gal/hr 0.00 gal/nm 0 msl 0 kts
Fri, Apr 27, 2018 MMAN MMAN 19:47 22:55 3.08 hrs 2.69 hrs 342.04 nm 27.01 gal 8.76 gal/hr 0.08 gal/nm 9131 msl 125 kts
Fri, Apr 27, 2018 MMAN MMAN 18:30 19:27 0.95 hrs 0.55 hrs 59.73 nm 5.92 gal 6.27 gal/hr 0.10 gal/nm 2961 msl 109 kts
Fri, Apr 27, 2018 MMAN MMAN 18:08 18:16 0.13 hrs 0.00 hrs 0.00 nm 0.14 gal 1.06 gal/hr 0.00 gal/nm 0 msl 0 kts
Fri, Apr 27, 2018     17:40 17:40 0.01 hrs 0.00 hrs 0.00 nm 0.00 gal 0.00 gal/hr 0.00 gal/nm 0 msl 0 kts
Fri, Apr 27, 2018     15:58 15:59 0.01 hrs 0.00 hrs 0.00 nm 0.00 gal 0.00 gal/hr 0.00 gal/nm 0 msl 0 kts
Fri, Apr 27, 2018 MMAN MMAN 13:47 15:57 2.09 hrs 1.84 hrs 226.12 nm 19.94 gal 9.53 gal/hr 0.09 gal/nm 3936 msl 118 kts
Fri, Apr 27, 2018 MMAN MMAN 13:28 13:28 0.02 hrs 0.00 hrs 0.00 nm 0.00 gal 0.00 gal/hr 0.00 gal/nm 0 msl 0 kts
Thu, Apr 26, 2018 MMAN MMAN 21:30 23:44 2.2 hrs 1.85 hrs 234.24 nm 19.71 gal 8.97 gal/hr 0.08 gal/nm 9146 msl 124 kts
Thu, Apr 26, 2018 MMAN MMAN 21:20 21:27 0.12 hrs 0.00 hrs 0.00 nm 0.00 gal 0.00 gal/hr 0.00 gal/nm 0 msl 0 kts
Thu, Apr 26, 2018 MMAN MMAN 18:09 20:58 2.8 hrs 2.23 hrs 283.00 nm 22.42 gal 8.02 gal/hr 0.08 gal/nm 10118 msl 125 kts
Thu, Apr 26, 2018 MMAN MMAN 16:55 17:42 0.77 hrs 0.45 hrs 54.10 nm 4.94 gal 6.42 gal/hr 0.09 gal/nm 2667 msl 115 kts
Thu, Apr 26, 2018 MMAN MMAN 16:50 16:52 0.04 hrs 0.00 hrs 0.00 nm 0.00 gal 0.00 gal/hr 0.00 gal/nm 0 msl 0 kts
Thu, Apr 26, 2018 MMAN MMAN 14:23 15:38 1.23 hrs 0.87 hrs 104.68 nm 9.77 gal 7.92 gal/hr 0.09 gal/nm 4596 msl 118 kts
Thu, Apr 26, 2018 MMAN MMAN 14:02 14:04 0.03 hrs 0.00 hrs 0.00 nm 0.00 gal 0.00 gal/hr 0.00 gal/nm 0 msl 0 kts
Thu, Apr 26, 2018 MMAN MMAN 11:49 13:29 1.61 hrs 1.26 hrs 142.44 nm 13.78 gal 8.57 gal/hr 0.10 gal/nm 2714 msl 109 kts
Wed, Apr 25, 2018 MMAN MMAN 16:28 17:56 1.47 hrs 1.09 hrs 125.96 nm 11.82 gal 8.06 gal/hr 0.09 gal/nm 3530 msl 115 kts
Wed, Apr 25, 2018 MMAN MMAN 16:20 16:21 0.02 hrs 0.00 hrs 0.00 nm 0.00 gal 0.00 gal/hr 0.00 gal/nm 0 msl 0 kts
Wed, Apr 25, 2018 MMAN MMAN 13:52 15:32 1.63 hrs 1.29 hrs 149.14 nm 13.61 gal 8.34 gal/hr 0.09 gal/nm 2916 msl 112 kts
Wed, Apr 25, 2018 MMAN MMAN 13:45 13:48 0.04 hrs 0.00 hrs 0.00 nm 0.00 gal 0.00 gal/hr 0.00 gal/nm 0 msl 0 kts
Sun, Apr 22, 2018 MMMV MMAN 15:39 16:48 1.13 hrs 0.93 hrs 114.19 nm 9.62 gal 8.51 gal/hr 0.08 gal/nm 9089 msl 121 kts
Sun, Apr 22, 2018 MMAN MMMV 13:16 15:19 2.05 hrs 1.64 hrs 192.59 nm 17.65 gal 8.60 gal/hr 0.09 gal/nm 10107 msl 118 kts
Sun, Apr 22, 2018 MMAN MMAN 12:57 12:58 0.02 hrs 0.00 hrs 0.00 nm 0.00 gal 0.00 gal/hr 0.00 gal/nm 0 msl 0 kts
Sun, Apr 22, 2018 MMAN MMAN 09:45 10:20 0.58 hrs 0.35 hrs 40.31 nm 4.19 gal 7.27 gal/hr 0.10 gal/nm 2689 msl 111 kts
Sun, Apr 22, 2018 MMAN MMAN 09:26 09:31 0.1 hrs 0.00 hrs 0.00 nm 0.28 gal 2.78 gal/hr 0.00 gal/nm 0 msl 0 kts
Sun, Apr 22, 2018 MMAN MMAN 09:14 09:15 0.01 hrs 0.00 hrs 0.00 nm 0.00 gal 0.00 gal/hr 0.00 gal/nm 0 msl 0 kts
Sun, Apr 22, 2018     09:03 09:03 0.01 hrs 0.00 hrs 0.00 nm 0.00 gal 0.00 gal/hr 0.00 gal/nm 0 msl 0 kts
Sat, Apr 21, 2018 MMAN MMAN 20:41 22:20 1.63 hrs 1.19 hrs 145.18 nm 13.16 gal 8.07 gal/hr 0.09 gal/nm 10171 msl 120 kts
Sat, Apr 21, 2018 MMAN MMAN 20:19 20:25 0.1 hrs 0.00 hrs 0.00 nm 0.15 gal 1.53 gal/hr 0.00 gal/nm 0 msl 0 kts
Sat, Apr 21, 2018 MMMV MMAN 18:39 19:49 1.17 hrs 0.88 hrs 114.98 nm 9.81 gal 8.39 gal/hr 0.09 gal/nm 9070 msl 129 kts
Sat, Apr 21, 2018 MMAN MMMV 16:00 18:29 2.47 hrs 1.85 hrs 201.33 nm 20.69 gal 8.39 gal/hr 0.10 gal/nm 10110 msl 108 kts
Sat, Apr 21, 2018 MMAN MMAN 15:50 15:51 0.02 hrs 0.00 hrs 0.00 nm 0.00 gal 0.00 gal/hr 0.00 gal/nm 0 msl 0 kts
Sat, Apr 21, 2018 MMMV MMAN 12:07 13:10 1.02 hrs 0.82 hrs 101.69 nm 7.73 gal 7.60 gal/hr 0.08 gal/nm 5588 msl 120 kts
Sat, Apr 21, 2018 MMAN MMMV 09:59 11:16 1.24 hrs 0.97 hrs 107.30 nm 9.31 gal 7.54 gal/hr 0.09 gal/nm 5006 msl 107 kts
Sat, Apr 21, 2018 MMAN MMAN 08:21 08:27 0.1 hrs 0.00 hrs 0.00 nm 0.24 gal 2.40 gal/hr 0.00 gal/nm 0 msl 0 kts
Tue, Apr 17, 2018 MMAN MMAN 20:43 22:14 1.49 hrs 1.10 hrs 140.80 nm 11.92 gal 8.02 gal/hr 0.08 gal/nm 8151 msl 124 kts
Tue, Apr 17, 2018 MMAN MMAN 20:16 20:18 0.04 hrs 0.00 hrs 0.00 nm 0.00 gal 0.00 gal/hr 0.00 gal/nm 0 msl 0 kts
Tue, Apr 17, 2018 MMMV MMAN 18:58 19:58 1 hrs 0.83 hrs 96.65 nm 9.37 gal 9.38 gal/hr 0.10 gal/nm 5743 msl 117 kts
Tue, Apr 17, 2018 MMAN MMMV 17:01 18:42 1.69 hrs 1.36 hrs 157.19 nm 14.21 gal 8.40 gal/hr 0.09 gal/nm 6730 msl 116 kts
Tue, Apr 17, 2018 MMAN MMAN 16:36 16:38 0.03 hrs 0.00 hrs 0.00 nm 0.00 gal 0.00 gal/hr 0.00 gal/nm 0 msl 0 kts
Tue, Apr 17, 2018 MMRX MMAN 13:04 14:17 1.17 hrs 0.92 hrs 116.51 nm 9.97 gal 8.56 gal/hr 0.09 gal/nm 6600 msl 123 kts
Tue, Apr 17, 2018 MMAN MMRX 11:34 12:45 1.15 hrs 0.87 hrs 112.93 nm 9.10 gal 7.92 gal/hr 0.08 gal/nm 5587 msl 126 kts
Tue, Apr 17, 2018     11:24 11:24 0.01 hrs 0.00 hrs 0.00 nm 0.00 gal 0.00 gal/hr 0.00 gal/nm 0 msl 0 kts
Mon, Apr 16, 2018 MMTM MMAN 15:51 17:56 2.06 hrs 1.87 hrs 263.86 nm 17.42 gal 8.44 gal/hr 0.07 gal/nm 6718 msl 139 kts
Mon, Apr 16, 2018 MMAN MMTM 12:35 15:06 2.45 hrs 2.14 hrs 252.88 nm 20.77 gal 8.48 gal/hr 0.08 gal/nm 5774 msl 114 kts
Mon, Apr 16, 2018 MMAN MMAN 12:01 12:02 0.02 hrs 0.00 hrs 0.00 nm 0.00 gal 0.00 gal/hr 0.00 gal/nm 0 msl 0 kts
Mon, Apr 16, 2018 MMAN MMAN 11:55 11:57 0.03 hrs 0.00 hrs 0.00 nm 0.00 gal 0.00 gal/hr 0.00 gal/nm 0 msl 0 kts
Sun, Apr 15, 2018 MMAN MMAN 18:39 20:00 1.36 hrs 1.01 hrs 98.17 nm 10.63 gal 7.81 gal/hr 0.11 gal/nm 2748 msl 97 kts
Sun, Apr 15, 2018     18:31 18:32 0.02 hrs 0.00 hrs 0.00 nm 0.00 gal 0.00 gal/hr 0.00 gal/nm 0 msl 0 kts
Sun, Apr 15, 2018 MMMV MMAN 17:17 18:25 1.1 hrs 0.82 hrs 97.13 nm 9.11 gal 8.28 gal/hr 0.09 gal/nm 7611 msl 114 kts
Sun, Apr 15, 2018 MMAN MMMV 15:55 17:05 1.13 hrs 0.75 hrs 102.22 nm 8.67 gal 7.68 gal/hr 0.08 gal/nm 4824 msl 130 kts
Sun, Apr 15, 2018     15:22 15:23 0.02 hrs 0.00 hrs 0.00 nm 0.00 gal 0.00 gal/hr 0.00 gal/nm 0 msl 0 kts
Sun, Apr 15, 2018 MMNL MMAN 12:29 13:42 1.17 hrs 0.91 hrs 110.42 nm 9.94 gal 8.47 gal/hr 0.09 gal/nm 4868 msl 117 kts
Sun, Apr 15, 2018 MMAN MMNL 10:44 11:56 1.19 hrs 0.87 hrs 111.55 nm 9.04 gal 7.63 gal/hr 0.08 gal/nm 5640 msl 125 kts
Sun, Apr 15, 2018 MMAN MMAN 10:22 10:24 0.03 hrs 0.00 hrs 0.00 nm 0.00 gal 0.00 gal/hr 0.00 gal/nm 0 msl 0 kts
Sat, Apr 14, 2018 MMAN MMAN 17:27 19:07 1.66 hrs 1.34 hrs 158.63 nm 13.93 gal 8.38 gal/hr 0.09 gal/nm 3949 msl 117 kts
Sat, Apr 14, 2018 MMAN MMAN 17:10 17:12 0.03 hrs 0.00 hrs 0.00 nm 0.00 gal 0.00 gal/hr 0.00 gal/nm 0 msl 0 kts
Sat, Apr 14, 2018 MMAN MMAN 14:29 15:49 1.3 hrs 0.89 hrs 108.55 nm 9.68 gal 7.48 gal/hr 0.09 gal/nm 4567 msl 118 kts
Sat, Apr 14, 2018 MMMV MMAN 11:54 13:11 1.27 hrs 1.00 hrs 117.84 nm 9.56 gal 7.52 gal/hr 0.08 gal/nm 6047 msl 116 kts
Sat, Apr 14, 2018 MMAN MMMV 09:32 11:11 1.61 hrs 1.16 hrs 131.43 nm 12.81 gal 7.96 gal/hr 0.10 gal/nm 10200 msl 109 kts
Sat, Apr 14, 2018 MMAN MMAN 09:12 09:13 0.02 hrs 0.00 hrs 0.00 nm 0.00 gal 0.00 gal/hr 0.00 gal/nm 0 msl 0 kts
Sat, Apr 14, 2018     09:07 09:08 0.01 hrs 0.00 hrs 0.00 nm 0.00 gal 0.00 gal/hr 0.00 gal/nm 0 msl 0 kts
Fri, Apr 13, 2018 MMRX MMAN 16:52 18:14 1.34 hrs 1.09 hrs 123.32 nm 12.06 gal 9.03 gal/hr 0.10 gal/nm 8235 msl 110 kts
Fri, Apr 13, 2018 MMAN MMRX 15:06 16:20 1.24 hrs 0.91 hrs 125.09 nm 9.95 gal 8.04 gal/hr 0.08 gal/nm 9139 msl 136 kts
Fri, Apr 13, 2018 MMAN MMAN 14:48 14:49 0.02 hrs 0.00 hrs 0.00 nm 0.00 gal 0.00 gal/hr 0.00 gal/nm 0 msl 0 kts
Fri, Apr 13, 2018 MMAN MMAN 10:33 12:17 1.73 hrs 1.00 hrs 114.91 nm 10.44 gal 6.03 gal/hr 0.09 gal/nm 6210 msl 114 kts
Fri, Apr 13, 2018 MMAN MMAN 09:52 09:54 0.03 hrs 0.00 hrs 0.00 nm 0.00 gal 0.00 gal/hr 0.00 gal/nm 0 msl 0 kts
Thu, Apr 12, 2018 MMAN MMAN 17:32 19:10 1.58 hrs 1.23 hrs 150.52 nm 12.75 gal 8.06 gal/hr 0.08 gal/nm 3721 msl 118 kts
Thu, Apr 12, 2018 MMAN MMAN 16:56 16:58 0.03 hrs 0.00 hrs 0.00 nm 0.00 gal 0.00 gal/hr 0.00 gal/nm 0 msl 0 kts
Thu, Apr 12, 2018 MMMV MMAN 13:55 15:03 1.13 hrs 0.83 hrs 98.67 nm 8.82 gal 7.81 gal/hr 0.09 gal/nm 5914 msl 119 kts
Thu, Apr 12, 2018 MMAN MMMV 11:00 13:15 2.26 hrs 1.76 hrs 189.57 nm 18.25 gal 8.07 gal/hr 0.10 gal/nm 6765 msl 108 kts
Thu, Apr 12, 2018 MMAN MMAN 10:34 10:37 0.05 hrs 0.00 hrs 0.00 nm 0.00 gal 0.00 gal/hr 0.00 gal/nm 0 msl 0 kts
Tue, Apr 10, 2018 MMAN MMAN 12:41 12:52 0.18 hrs 0.00 hrs 0.00 nm 0.76 gal 4.21 gal/hr 0.00 gal/nm 0 msl 0 kts
Tue, Apr 10, 2018 MMAN MMAN 10:10 10:21 0.2 hrs 0.00 hrs 0.00 nm 0.65 gal 3.31 gal/hr 0.00 gal/nm 0 msl 0 kts
Mon, Apr 9, 2018 MMAN MMAN 19:19 20:10 0.83 hrs 0.50 hrs 59.38 nm 5.79 gal 6.98 gal/hr 0.10 gal/nm 2718 msl 115 kts
Mon, Apr 9, 2018 MMAN MMAN 18:56 19:04 0.13 hrs 0.00 hrs 0.00 nm 0.13 gal 1.05 gal/hr 0.00 gal/nm 0 msl 0 kts
Mon, Apr 9, 2018 MMAN MMAN 18:48 18:51 0.05 hrs 0.00 hrs 0.00 nm 0.00 gal 0.00 gal/hr 0.00 gal/nm 0 msl 0 kts
Mon, Apr 9, 2018     18:32 18:33 0.01 hrs 0.00 hrs 0.00 nm 0.00 gal 0.00 gal/hr 0.00 gal/nm 0 msl 0 kts
Sun, Apr 8, 2018 MMAN MMAN 15:28 17:14 1.75 hrs 1.51 hrs 182.04 nm 14.86 gal 8.48 gal/hr 0.08 gal/nm 4181 msl 119 kts
Sun, Apr 8, 2018 MMAN MMAN 15:10 15:12 0.03 hrs 0.00 hrs 0.00 nm 0.00 gal 0.00 gal/hr 0.00 gal/nm 0 msl 0 kts
Sat, Apr 7, 2018 MMAN MMAN 12:41 14:22 1.65 hrs 1.40 hrs 172.23 nm 14.81 gal 8.98 gal/hr 0.09 gal/nm 7088 msl 120 kts
Sat, Apr 7, 2018 MMAN MMAN 11:40 11:42 0.04 hrs 0.00 hrs 0.00 nm 0.06 gal 1.58 gal/hr 0.00 gal/nm 0 msl 0 kts
Sat, Apr 7, 2018 MMAN MMAN 09:57 11:29 1.5 hrs 1.23 hrs 145.14 nm 12.61 gal 8.42 gal/hr 0.09 gal/nm 3488 msl 114 kts
Sat, Apr 7, 2018 MMAN MMAN 09:19 09:24 0.08 hrs 0.00 hrs 0.00 nm 0.00 gal 0.00 gal/hr 0.00 gal/nm 0 msl 0 kts
Fri, Apr 6, 2018 MMAN MMAN 19:25 19:31 0.1 hrs 0.00 hrs 0.00 nm 0.28 gal 2.89 gal/hr 0.00 gal/nm 0 msl 0 kts
Fri, Apr 6, 2018 MMAN MMAN 18:28 18:32 0.06 hrs 0.00 hrs 0.00 nm 0.27 gal 4.45 gal/hr 0.00 gal/nm 0 msl 0 kts
Fri, Apr 6, 2018 MMAN MMAN 18:07 18:19 0.2 hrs 0.00 hrs 0.00 nm 0.29 gal 1.47 gal/hr 0.00 gal/nm 0 msl 0 kts
Wed, Mar 14, 2018     13:45 13:45 0.01 hrs 0.00 hrs 0.00 nm 0.00 gal 0.00 gal/hr 0.00 gal/nm 0 msl 0 kts
Wed, Mar 14, 2018 MMAN MMAN 13:11 13:28 0.28 hrs 0.00 hrs 0.00 nm 0.68 gal 2.45 gal/hr 0.00 gal/nm 0 msl 0 kts
Thu, Mar 8, 2018     17:46 17:46 0.01 hrs 0.00 hrs 0.00 nm 0.00 gal -0.01 gal/hr 0.00 gal/nm 0 msl 0 kts
Wed, Mar 7, 2018 MMAN MMAN 17:21 17:31 0.17 hrs 0.00 hrs 0.00 nm 0.45 gal 2.65 gal/hr 0.00 gal/nm 0 msl 0 kts
Mon, Mar 5, 2018 MMAN MMAN 16:54 19:08 2.17 hrs 1.84 hrs 213.91 nm 17.19 gal 7.92 gal/hr 0.08 gal/nm 2882 msl 113 kts
Mon, Mar 5, 2018 MMAN MMAN 16:30 16:31 0.01 hrs 0.00 hrs 0.00 nm 0.00 gal 0.00 gal/hr 0.00 gal/nm 0 msl 0 kts
Mon, Mar 5, 2018     16:28 16:29 0.01 hrs 0.00 hrs 0.00 nm 0.00 gal 0.00 gal/hr 0.00 gal/nm 0 msl 0 kts
Mon, Mar 5, 2018 MMMA MMAN 14:26 15:53 1.39 hrs 1.19 hrs 155.50 nm 12.39 gal 8.94 gal/hr 0.08 gal/nm 6697 msl 125 kts
Mon, Mar 5, 2018 MMAN MMMA 12:36 14:06 1.45 hrs 1.16 hrs 149.96 nm 12.42 gal 8.57 gal/hr 0.08 gal/nm 5611 msl 124 kts
Mon, Mar 5, 2018 MMAN MMAN 12:17 12:19 0.03 hrs 0.00 hrs 0.00 nm 0.00 gal 0.00 gal/hr 0.00 gal/nm 0 msl 0 kts
Sun, Mar 4, 2018 MMTM MMAN 16:36 18:40 2.02 hrs 1.83 hrs 260.81 nm 17.69 gal 8.76 gal/hr 0.07 gal/nm 6710 msl 138 kts
Sun, Mar 4, 2018 MMTM MMTM 16:08 16:10 0.04 hrs 0.00 hrs 0.00 nm 0.00 gal 0.00 gal/hr 0.00 gal/nm 0 msl 0 kts
Sun, Mar 4, 2018 MMAN MMTM 13:26 16:04 2.57 hrs 2.23 hrs 261.65 nm 22.08 gal 8.60 gal/hr 0.08 gal/nm 6363 msl 113 kts
Sun, Mar 4, 2018     12:59 13:00 0.02 hrs 0.00 hrs 0.00 nm 0.00 gal 0.00 gal/hr 0.00 gal/nm 0 msl 0 kts
Sat, Mar 3, 2018 MMAN MMAN 17:03 18:57 1.89 hrs 1.64 hrs 161.21 nm 15.59 gal 8.24 gal/hr 0.10 gal/nm 2634 msl 98 kts
Sat, Mar 3, 2018 MMMV MMAN 15:24 16:22 0.97 hrs 0.77 hrs 96.66 nm 8.02 gal 8.29 gal/hr 0.08 gal/nm 7575 msl 125 kts
Sat, Mar 3, 2018 MMAN MMMV 13:24 14:57 1.55 hrs 1.31 hrs 151.36 nm 13.24 gal 8.54 gal/hr 0.09 gal/nm 6586 msl 115 kts
Sat, Mar 3, 2018     13:17 13:17 0.01 hrs 0.00 hrs 0.00 nm 0.00 gal 0.00 gal/hr 0.00 gal/nm 0 msl 0 kts
Sat, Mar 3, 2018 MMTC MMAN 10:56 12:33 1.58 hrs 1.34 hrs 182.73 nm 13.18 gal 8.34 gal/hr 0.07 gal/nm 9707 msl 132 kts
Sat, Mar 3, 2018 MMTC MMTC 10:47 10:51 0.08 hrs 0.00 hrs 0.00 nm 0.00 gal 0.00 gal/hr 0.00 gal/nm 0 msl 0 kts
Fri, Mar 2, 2018 MMAN MMTC 13:17 15:00 1.67 hrs 1.39 hrs 186.59 nm 14.66 gal 8.79 gal/hr 0.08 gal/nm 8651 msl 130 kts
Fri, Mar 2, 2018 MMAN MMAN 12:57 12:59 0.03 hrs 0.00 hrs 0.00 nm 0.00 gal 0.00 gal/hr 0.00 gal/nm 0 msl 0 kts
Fri, Mar 2, 2018 MMAN MMAN 10:58 12:48 1.83 hrs 1.27 hrs 152.79 nm 13.82 gal 7.54 gal/hr 0.09 gal/nm 3085 msl 120 kts
Fri, Mar 2, 2018     10:23 10:23 0.01 hrs 0.00 hrs 0.00 nm 0.00 gal 0.00 gal/hr 0.00 gal/nm 0 msl 0 kts
Thu, Mar 1, 2018     19:10 19:10 0.01 hrs 0.00 hrs 0.00 nm 0.00 gal 0.00 gal/hr 0.00 gal/nm 0 msl 0 kts
Thu, Mar 1, 2018 MMMV MMAN 17:16 18:30 1.21 hrs 0.81 hrs 102.63 nm 9.15 gal 7.54 gal/hr 0.09 gal/nm 6074 msl 123 kts
Thu, Mar 1, 2018 MMAN MMMV 15:32 16:48 1.25 hrs 0.86 hrs 104.49 nm 9.84 gal 7.86 gal/hr 0.09 gal/nm 5048 msl 119 kts
Thu, Mar 1, 2018 MMAN MMAN 15:22 15:30 0.13 hrs 0.00 hrs 0.00 nm 0.18 gal 1.38 gal/hr 0.00 gal/nm 0 msl 0 kts
Thu, Mar 1, 2018 MMAN MMAN 14:30 14:32 0.03 hrs 0.00 hrs 0.00 nm 0.00 gal 0.00 gal/hr 0.00 gal/nm 0 msl 0 kts
Tue, Feb 27, 2018 MMMV MMAN 15:15 16:15 1 hrs 0.80 hrs 97.95 nm 8.43 gal 8.46 gal/hr 0.09 gal/nm 7810 msl 122 kts
Tue, Feb 27, 2018 MMAN MMMV 13:40 14:44 1.04 hrs 0.80 hrs 103.54 nm 8.58 gal 8.28 gal/hr 0.08 gal/nm 6623 msl 125 kts
Tue, Feb 27, 2018     12:54 12:55 0.01 hrs 0.00 hrs 0.00 nm 0.00 gal 0.00 gal/hr 0.00 gal/nm 0 msl 0 kts
Mon, Feb 26, 2018 MMAN MMAN 14:51 16:04 1.22 hrs 0.98 hrs 102.27 nm 9.61 gal 7.88 gal/hr 0.09 gal/nm 2656 msl 105 kts
Mon, Feb 26, 2018 MMAN MMAN 12:20 14:11 1.84 hrs 1.42 hrs 156.95 nm 14.47 gal 7.88 gal/hr 0.09 gal/nm 4693 msl 110 kts
Mon, Feb 26, 2018 MMAN MMAN 11:58 11:59 0.02 hrs 0.00 hrs 0.00 nm 0.00 gal 0.00 gal/hr 0.00 gal/nm 0 msl 0 kts
Mon, Feb 26, 2018     11:25 11:26 0.01 hrs 0.00 hrs 0.00 nm 0.00 gal 0.00 gal/hr 0.00 gal/nm 0 msl 0 kts
Sun, Feb 25, 2018 MMAN MMAN 14:41 14:45 0.07 hrs 0.00 hrs 0.00 nm 0.13 gal 1.75 gal/hr 0.00 gal/nm 0 msl 0 kts
Sun, Feb 25, 2018 MMAN MMAN 14:09 14:13 0.07 hrs 0.00 hrs 0.00 nm 0.10 gal 1.40 gal/hr 0.00 gal/nm 0 msl 0 kts
Sun, Feb 25, 2018     13:43 13:43 0.01 hrs 0.00 hrs 0.00 nm 0.00 gal 0.00 gal/hr 0.00 gal/nm 0 msl 0 kts
Sun, Feb 25, 2018 MMAN MMAN 11:50 13:41 1.79 hrs 1.47 hrs 166.55 nm 15.10 gal 8.46 gal/hr 0.09 gal/nm 2660 msl 109 kts
Sun, Feb 25, 2018 MMAN MMAN 10:03 11:06 1.01 hrs 0.74 hrs 86.47 nm 8.28 gal 8.21 gal/hr 0.10 gal/nm 7589 msl 112 kts
Sun, Feb 25, 2018 MMAN MMAN 09:53 09:54 0.03 hrs 0.00 hrs 0.00 nm 0.00 gal 0.00 gal/hr 0.00 gal/nm 0 msl 0 kts
Wed, Feb 21, 2018 MMAN MMAN 17:31 19:07 1.6 hrs 1.19 hrs 133.08 nm 11.38 gal 7.11 gal/hr 0.09 gal/nm 4684 msl 112 kts
Wed, Feb 21, 2018 MMMV MMAN 15:12 16:23 1.14 hrs 0.93 hrs 123.96 nm 9.81 gal 8.61 gal/hr 0.08 gal/nm 9182 msl 128 kts
Wed, Feb 21, 2018 MMAN MMMV 13:02 14:47 1.7 hrs 1.12 hrs 137.57 nm 12.54 gal 7.38 gal/hr 0.09 gal/nm 10219 msl 119 kts
Wed, Feb 21, 2018 MMAN MMAN 12:39 12:40 0.02 hrs 0.00 hrs 0.00 nm 0.00 gal 0.00 gal/hr 0.00 gal/nm 0 msl 0 kts
Tue, Feb 20, 2018 MMMV MMAN 17:43 18:50 1.09 hrs 0.83 hrs 103.42 nm 8.96 gal 8.20 gal/hr 0.09 gal/nm 7680 msl 121 kts
Tue, Feb 20, 2018 MMAN MMMV 16:08 17:22 1.19 hrs 0.83 hrs 106.99 nm 9.58 gal 8.03 gal/hr 0.09 gal/nm 8606 msl 125 kts
Tue, Feb 20, 2018     16:00 16:01 0.02 hrs 0.00 hrs 0.00 nm 0.00 gal 0.00 gal/hr 0.00 gal/nm 0 msl 0 kts
Tue, Feb 20, 2018 MMAN MMAN 15:03 15:04 0.03 hrs 0.00 hrs 0.00 nm 0.00 gal 0.00 gal/hr 0.00 gal/nm 0 msl 0 kts
Tue, Feb 20, 2018 MMAN MMAN 13:08 14:24 1.27 hrs 0.84 hrs 98.30 nm 9.23 gal 7.27 gal/hr 0.09 gal/nm 3854 msl 116 kts
Tue, Feb 20, 2018 MMAN MMAN 12:42 12:44 0.03 hrs 0.00 hrs 0.00 nm 0.00 gal 0.00 gal/hr 0.00 gal/nm 0 msl 0 kts
Mon, Feb 19, 2018 MMMV MMAN 17:28 18:32 1.05 hrs 0.82 hrs 98.32 nm 9.04 gal 8.58 gal/hr 0.09 gal/nm 5702 msl 117 kts
Mon, Feb 19, 2018 MMAN MMMV 16:01 17:08 1.13 hrs 0.81 hrs 104.59 nm 8.81 gal 7.83 gal/hr 0.08 gal/nm 6766 msl 128 kts
Mon, Feb 19, 2018     15:34 15:35 0.02 hrs 0.00 hrs 0.00 nm 0.00 gal 0.00 gal/hr 0.00 gal/nm 0 msl 0 kts
Mon, Feb 19, 2018 MMAN MMAN 15:29 15:30 0.02 hrs 0.00 hrs 0.00 nm 0.00 gal 0.00 gal/hr 0.00 gal/nm 0 msl 0 kts
Mon, Feb 19, 2018 MMAN MMAN 12:54 14:55 2.02 hrs 1.62 hrs 190.10 nm 15.20 gal 7.53 gal/hr 0.08 gal/nm 5124 msl 118 kts
Mon, Feb 19, 2018 MMAN MMAN 12:34 12:35 0.03 hrs 0.00 hrs 0.00 nm 0.00 gal 0.00 gal/hr 0.00 gal/nm 0 msl 0 kts
Sat, Feb 17, 2018     15:53 15:53 0.01 hrs 0.00 hrs 0.00 nm 0.00 gal 0.00 gal/hr 0.00 gal/nm 0 msl 0 kts
Sat, Feb 17, 2018 MMAN MMAN 14:10 15:52 1.63 hrs 1.27 hrs 143.41 nm 13.00 gal 7.96 gal/hr 0.09 gal/nm 3090 msl 108 kts
Sat, Feb 17, 2018 MMAN MMAN 14:01 14:03 0.03 hrs 0.00 hrs 0.00 nm 0.00 gal 0.00 gal/hr 0.00 gal/nm 0 msl 0 kts
Fri, Feb 16, 2018 MMRX MMAN 17:31 18:42 1.15 hrs 0.92 hrs 122.92 nm 10.18 gal 8.83 gal/hr 0.08 gal/nm 8195 msl 129 kts
Fri, Feb 16, 2018 MMAN MMRX 15:25 16:58 1.53 hrs 1.05 hrs 128.14 nm 11.68 gal 7.63 gal/hr 0.09 gal/nm 9099 msl 119 kts
Fri, Feb 16, 2018 MMAN MMAN 14:55 14:57 0.04 hrs 0.00 hrs 0.00 nm 0.00 gal 0.00 gal/hr 0.00 gal/nm 0 msl 0 kts
Fri, Feb 16, 2018 MMAN MMAN 11:50 13:19 1.47 hrs 0.88 hrs 105.82 nm 9.15 gal 6.21 gal/hr 0.09 gal/nm 3610 msl 119 kts
Fri, Feb 16, 2018 MMAN MMAN 10:14 10:21 0.11 hrs 0.00 hrs 0.00 nm 0.00 gal 0.00 gal/hr 0.00 gal/nm 0 msl 0 kts
Fri, Feb 16, 2018     10:12 10:12 0.01 hrs 0.00 hrs 0.00 nm 0.00 gal 0.00 gal/hr 0.00 gal/nm 0 msl 0 kts
Thu, Feb 15, 2018     15:48 15:49 0.02 hrs 0.00 hrs 0.00 nm 0.00 gal 0.00 gal/hr 0.00 gal/nm 0 msl 0 kts
Sun, Feb 11, 2018     13:32 13:32 0.01 hrs 0.00 hrs 0.00 nm 0.00 gal 0.00 gal/hr 0.00 gal/nm 0 msl 0 kts
Sun, Feb 11, 2018     13:14 13:14 0.01 hrs 0.00 hrs 0.00 nm 0.00 gal 0.00 gal/hr 0.00 gal/nm 0 msl 0 kts
Sun, Feb 11, 2018 MMMV MMAN 12:04 13:10 1.06 hrs 0.83 hrs 102.55 nm 8.43 gal 7.95 gal/hr 0.08 gal/nm 5792 msl 118 kts
Sun, Feb 11, 2018 MMAN MMMV 09:55 11:27 1.52 hrs 1.19 hrs 142.34 nm 13.09 gal 8.64 gal/hr 0.09 gal/nm 10187 msl 117 kts
Sun, Feb 11, 2018 MMAN MMAN 09:34 09:41 0.12 hrs 0.00 hrs 0.00 nm 0.20 gal 1.73 gal/hr 0.00 gal/nm 0 msl 0 kts
Sun, Feb 11, 2018 MMAN MMAN 09:16 09:18 0.03 hrs 0.00 hrs 0.00 nm 0.00 gal 0.00 gal/hr 0.00 gal/nm 0 msl 0 kts
Sat, Feb 10, 2018 MMNL MMAN 19:52 21:03 1.15 hrs 0.89 hrs 103.68 nm 9.19 gal 8.03 gal/hr 0.09 gal/nm 8216 msl 112 kts
Sat, Feb 10, 2018 MMAN MMNL 18:00 19:23 1.36 hrs 0.98 hrs 130.66 nm 10.71 gal 7.89 gal/hr 0.08 gal/nm 9116 msl 130 kts
Sat, Feb 10, 2018 MMAN MMAN 16:58 17:00 0.04 hrs 0.00 hrs 0.00 nm 0.00 gal 0.00 gal/hr 0.00 gal/nm 0 msl 0 kts
Sat, Feb 10, 2018 MMTC MMAN 13:21 15:14 1.83 hrs 1.36 hrs 195.35 nm 13.90 gal 7.59 gal/hr 0.07 gal/nm 9686 msl 139 kts
Sat, Feb 10, 2018 MMAN MMTC 10:42 12:38 1.9 hrs 1.56 hrs 176.54 nm 15.61 gal 8.21 gal/hr 0.09 gal/nm 8638 msl 111 kts
Sat, Feb 10, 2018 MMAN MMAN 10:29 10:30 0.03 hrs 0.00 hrs 0.00 nm 0.00 gal 0.00 gal/hr 0.00 gal/nm 0 msl 0 kts
Fri, Feb 9, 2018 MMPG MMAN 18:57 20:36 1.62 hrs 1.41 hrs 170.10 nm 14.27 gal 8.83 gal/hr 0.08 gal/nm 9227 msl 117 kts
Fri, Feb 9, 2018 MMAN MMPG 16:34 18:32 1.92 hrs 1.56 hrs 202.54 nm 15.27 gal 7.95 gal/hr 0.08 gal/nm 9205 msl 126 kts
Fri, Feb 9, 2018 MMAN MMAN 16:20 16:21 0.03 hrs 0.00 hrs 0.00 nm 0.00 gal 0.00 gal/hr 0.00 gal/nm 0 msl 0 kts
Fri, Feb 9, 2018 MMAN MMAN 16:03 16:08 0.09 hrs 0.00 hrs 0.00 nm 0.18 gal 2.08 gal/hr 0.00 gal/nm 0 msl 0 kts
Fri, Feb 9, 2018     14:14 14:14 0.01 hrs 0.00 hrs 0.00 nm 0.00 gal 0.00 gal/hr 0.00 gal/nm 0 msl 0 kts
Fri, Feb 9, 2018 MMAN MMAN 13:17 14:12 0.88 hrs 0.53 hrs 62.30 nm 6.46 gal 7.33 gal/hr 0.10 gal/nm 3909 msl 110 kts
Fri, Feb 9, 2018 MMAN MMAN 13:03 13:05 0.03 hrs 0.00 hrs 0.00 nm 0.00 gal 0.00 gal/hr 0.00 gal/nm 0 msl 0 kts
Fri, Feb 9, 2018 MMAN MMAN 10:27 12:06 1.63 hrs 1.11 hrs 132.55 nm 12.27 gal 7.54 gal/hr 0.09 gal/nm 2927 msl 118 kts
Fri, Feb 9, 2018 MMAN MMAN 10:19 10:23 0.06 hrs 0.00 hrs 0.00 nm 0.00 gal 0.00 gal/hr 0.00 gal/nm 0 msl 0 kts
Fri, Feb 9, 2018 MMAN MMAN 10:10 10:12 0.04 hrs 0.00 hrs 0.00 nm 0.00 gal 0.00 gal/hr 0.00 gal/nm 0 msl 0 kts
Wed, Feb 7, 2018 MMAN MMAN 15:06 15:19 0.21 hrs 0.00 hrs 0.00 nm 0.48 gal 2.27 gal/hr 0.00 gal/nm 0 msl 0 kts
Tue, Feb 6, 2018     12:22 12:25 0.06 hrs 0.00 hrs 0.00 nm 0.00 gal 0.00 gal/hr 0.00 gal/nm 0 msl 0 kts
Tue, Feb 6, 2018     12:03 12:04 0.02 hrs 0.00 hrs 0.00 nm 0.00 gal 0.00 gal/hr 0.00 gal/nm 0 msl 0 kts
Tue, Feb 6, 2018     10:41 10:44 0.05 hrs 0.00 hrs 0.00 nm 0.00 gal 0.00 gal/hr 0.00 gal/nm 0 msl 0 kts
Thu, Feb 1, 2018     16:43 16:48 0.09 hrs 0.00 hrs 0.00 nm 0.00 gal 0.00 gal/hr 0.00 gal/nm 0 msl 0 kts
Thu, Feb 1, 2018 MMAN MMAN 12:46 13:01 0.25 hrs 0.00 hrs 0.00 nm 0.85 gal 3.46 gal/hr 0.00 gal/nm 0 msl 0 kts
Tue, Jan 30, 2018 MMMV MMAN 14:41 15:48 1.11 hrs 0.92 hrs 101.41 nm 9.13 gal 8.26 gal/hr 0.09 gal/nm 5617 msl 108 kts
Tue, Jan 30, 2018 MMTC MMMV 12:59 14:20 1.32 hrs 1.10 hrs 137.42 nm 10.50 gal 7.93 gal/hr 0.08 gal/nm 7694 msl 122 kts
Tue, Jan 30, 2018 MMAN MMTC 10:39 12:13 1.54 hrs 1.29 hrs 177.14 nm 13.41 gal 8.69 gal/hr 0.08 gal/nm 8604 msl 136 kts
Tue, Jan 30, 2018 MMAN MMAN 10:12 10:17 0.08 hrs 0.00 hrs 0.00 nm 0.14 gal 1.72 gal/hr 0.00 gal/nm 0 msl 0 kts
Tue, Jan 30, 2018     09:53 09:54 0.01 hrs 0.00 hrs 0.00 nm 0.00 gal 0.00 gal/hr 0.00 gal/nm 0 msl 0 kts
Mon, Jan 29, 2018 MMNL MMAN 19:25 20:27 1.02 hrs 0.82 hrs 102.78 nm 8.78 gal 8.61 gal/hr 0.09 gal/nm 8117 msl 122 kts
Mon, Jan 29, 2018 MMAN MMNL 17:36 18:51 1.24 hrs 0.92 hrs 109.06 nm 9.55 gal 7.70 gal/hr 0.09 gal/nm 5629 msl 118 kts
Mon, Jan 29, 2018 MMAN MMAN 17:11 17:17 0.09 hrs 0.00 hrs 0.00 nm 0.15 gal 1.62 gal/hr 0.00 gal/nm 0 msl 0 kts
Mon, Jan 29, 2018     17:01 17:02 0.01 hrs 0.00 hrs 0.00 nm 0.00 gal 0.00 gal/hr 0.00 gal/nm 0 msl 0 kts
Mon, Jan 29, 2018 MMAN MMAN 16:53 16:54 0.02 hrs 0.00 hrs 0.00 nm 0.00 gal 0.00 gal/hr 0.00 gal/nm 0 msl 0 kts
Mon, Jan 29, 2018 MMRX MMAN 15:22 16:26 1.06 hrs 0.84 hrs 114.87 nm 8.91 gal 8.41 gal/hr 0.08 gal/nm 6599 msl 133 kts
Mon, Jan 29, 2018 MMNL MMRX 13:12 14:37 1.39 hrs 1.14 hrs 138.64 nm 11.64 gal 8.37 gal/hr 0.08 gal/nm 7632 msl 120 kts
Mon, Jan 29, 2018 MMAN MMNL 11:18 12:32 1.24 hrs 0.93 hrs 103.43 nm 9.88 gal 7.96 gal/hr 0.10 gal/nm 7536 msl 110 kts
Mon, Jan 29, 2018 MMAN MMAN 10:46 10:53 0.12 hrs 0.00 hrs 0.00 nm 0.23 gal 2.01 gal/hr 0.00 gal/nm 0 msl 0 kts
Mon, Jan 29, 2018 MMAN MMAN 10:17 10:18 0.02 hrs 0.00 hrs 0.00 nm 0.00 gal 0.00 gal/hr 0.00 gal/nm 0 msl 0 kts
Fri, Jan 26, 2018 MMAN MMAN 14:25 14:31 0.09 hrs 0.00 hrs 0.00 nm 0.00 gal 0.00 gal/hr 0.00 gal/nm 0 msl 0 kts
Thu, Jan 25, 2018 MMAN MMAN 16:03 16:05 0.03 hrs 0.00 hrs 0.00 nm 0.00 gal 0.00 gal/hr 0.00 gal/nm 0 msl 0 kts
Wed, Jan 24, 2018 MMMV MMAN 19:17 20:34 1.25 hrs 0.95 hrs 115.20 nm 11.16 gal 8.91 gal/hr 0.10 gal/nm 9120 msl 119 kts
Wed, Jan 24, 2018 MMMV MMMV 19:10 19:11 0.03 hrs 0.00 hrs 0.00 nm 0.00 gal 0.00 gal/hr 0.00 gal/nm 0 msl 0 kts
Wed, Jan 24, 2018 MMAN MMMV 16:19 18:42 2.37 hrs 1.90 hrs 236.85 nm 20.24 gal 8.54 gal/hr 0.09 gal/nm 10079 msl 124 kts
Wed, Jan 24, 2018 MMAN MMAN 16:03 16:11 0.15 hrs 0.00 hrs 0.00 nm 0.35 gal 2.36 gal/hr 0.00 gal/nm 0 msl 0 kts
Wed, Jan 24, 2018 MMAN MMAN 15:27 15:36 0.15 hrs 0.00 hrs 0.00 nm 0.17 gal 1.13 gal/hr 0.00 gal/nm 0 msl 0 kts
Wed, Jan 24, 2018 MMAN MMAN 13:25 15:13 1.79 hrs 1.46 hrs 177.96 nm 14.32 gal 7.99 gal/hr 0.08 gal/nm 4759 msl 122 kts
Wed, Jan 24, 2018     13:17 13:18 0.02 hrs 0.00 hrs 0.00 nm 0.00 gal 0.05 gal/hr 0.00 gal/nm 0 msl 0 kts
Wed, Jan 24, 2018 MMAN MMAN 09:42 11:36 1.89 hrs 1.49 hrs 176.70 nm 15.38 gal 8.14 gal/hr 0.09 gal/nm 4712 msl 119 kts
Wed, Jan 24, 2018 MMAN MMAN 09:09 09:16 0.13 hrs 0.00 hrs 0.00 nm 0.27 gal 2.17 gal/hr 0.00 gal/nm 0 msl 0 kts
Wed, Jan 24, 2018 MMAN MMAN 08:47 08:53 0.1 hrs 0.00 hrs 0.00 nm 0.00 gal 0.00 gal/hr 0.00 gal/nm 0 msl 0 kts
Tue, Jan 23, 2018 MMAN MMAN 17:38 19:22 1.73 hrs 1.30 hrs 157.45 nm 15.00 gal 8.69 gal/hr 0.10 gal/nm 3354 msl 120 kts
Tue, Jan 23, 2018 MMAN MMAN 17:23 17:25 0.03 hrs 0.00 hrs 0.00 nm 0.00 gal 0.00 gal/hr 0.00 gal/nm 0 msl 0 kts
Tue, Jan 23, 2018 MMAN MMAN 17:21 17:22 0.02 hrs 0.00 hrs 0.00 nm 0.00 gal 0.00 gal/hr 0.00 gal/nm 0 msl 0 kts
Tue, Jan 23, 2018 MMAN MMAN 11:19 11:24 0.09 hrs 0.00 hrs 0.00 nm 0.26 gal 3.03 gal/hr 0.00 gal/nm 0 msl 0 kts
Tue, Jan 23, 2018 MMAN MMAN 10:39 11:00 0.35 hrs 0.00 hrs 0.00 nm 1.50 gal 4.25 gal/hr 0.00 gal/nm 0 msl 0 kts
Mon, Jan 22, 2018 MMAN MMAN 18:14 18:51 0.62 hrs 0.28 hrs 30.46 nm 3.50 gal 5.69 gal/hr 0.11 gal/nm 2580 msl 109 kts
Mon, Jan 22, 2018 MMAN MMAN 17:54 18:02 0.13 hrs 0.00 hrs 0.00 nm 0.22 gal 1.78 gal/hr 0.00 gal/nm 0 msl 0 kts
Mon, Jan 22, 2018 MMAN MMAN 15:03 16:45 1.65 hrs 1.22 hrs 153.95 nm 12.59 gal 7.65 gal/hr 0.08 gal/nm 4029 msl 122 kts
Mon, Jan 22, 2018 MMAN MMAN 14:30 14:32 0.04 hrs 0.00 hrs 0.00 nm 0.00 gal 0.00 gal/hr 0.00 gal/nm 0 msl 0 kts
Sun, Jan 21, 2018 MMMV MMAN 17:42 18:40 0.94 hrs 0.76 hrs 97.37 nm 8.26 gal 8.79 gal/hr 0.08 gal/nm 5628 msl 124 kts
Sun, Jan 21, 2018 MMAN MMMV 15:55 17:24 1.45 hrs 1.14 hrs 127.55 nm 12.34 gal 8.50 gal/hr 0.10 gal/nm 10170 msl 110 kts
Sun, Jan 21, 2018 MMAN MMAN 15:25 15:32 0.11 hrs 0.00 hrs 0.00 nm 0.16 gal 1.50 gal/hr 0.00 gal/nm 0 msl 0 kts
Sun, Jan 21, 2018     15:12 15:13 0.01 hrs 0.00 hrs 0.00 nm 0.00 gal 0.00 gal/hr 0.00 gal/nm 0 msl 0 kts
Sun, Jan 21, 2018 MMMV MMAN 14:03 15:01 0.94 hrs 0.72 hrs 97.76 nm 7.78 gal 8.28 gal/hr 0.08 gal/nm 7719 msl 131 kts
Sun, Jan 21, 2018 MMAN MMMV 11:54 13:40 1.73 hrs 1.28 hrs 140.72 nm 12.51 gal 7.22 gal/hr 0.09 gal/nm 10156 msl 108 kts
Sun, Jan 21, 2018 MMAN MMAN 11:17 11:24 0.11 hrs 0.00 hrs 0.00 nm 0.22 gal 1.97 gal/hr 0.00 gal/nm 0 msl 0 kts
Sun, Jan 21, 2018 MMAN MMAN 10:42 10:43 0.02 hrs 0.00 hrs 0.00 nm 0.00 gal 0.00 gal/hr 0.00 gal/nm 0 msl 0 kts
Sat, Jan 20, 2018 MMAN MMAN 20:11 22:21 2.14 hrs 1.56 hrs 198.86 nm 16.62 gal 7.78 gal/hr 0.08 gal/nm 9205 msl 125 kts
Sat, Jan 20, 2018 MMAN MMAN 19:54 19:55 0.03 hrs 0.00 hrs 0.00 nm 0.00 gal 0.00 gal/hr 0.00 gal/nm 0 msl 0 kts
Sat, Jan 20, 2018 MMAN MMAN 18:17 19:20 1.05 hrs 0.60 hrs 73.95 nm 7.36 gal 6.99 gal/hr 0.10 gal/nm 3506 msl 122 kts
Sat, Jan 20, 2018 MMAN MMAN 17:49 18:01 0.2 hrs 0.00 hrs 0.00 nm 0.29 gal 1.45 gal/hr 0.00 gal/nm 0 msl 0 kts
Sat, Jan 20, 2018     17:42 17:42 0.01 hrs 0.00 hrs 0.00 nm 0.00 gal 0.00 gal/hr 0.00 gal/nm 0 msl 0 kts
Sat, Jan 20, 2018 MMAN MMAN 17:30 17:31 0.02 hrs 0.00 hrs 0.00 nm 0.00 gal 0.00 gal/hr 0.00 gal/nm 0 msl 0 kts
Sat, Jan 20, 2018 MMMV MMAN 16:16 17:16 0.98 hrs 0.78 hrs 97.19 nm 8.38 gal 8.60 gal/hr 0.09 gal/nm 5711 msl 121 kts
Sat, Jan 20, 2018 MMTC MMMV 14:40 15:57 1.26 hrs 0.97 hrs 137.87 nm 10.13 gal 8.07 gal/hr 0.07 gal/nm 7696 msl 136 kts
Sat, Jan 20, 2018 MMAN MMTC 11:38 13:27 1.78 hrs 1.47 hrs 176.03 nm 15.46 gal 8.68 gal/hr 0.09 gal/nm 6708 msl 118 kts
Sat, Jan 20, 2018 MMAN MMAN 11:17 11:24 0.11 hrs 0.00 hrs 0.00 nm 0.20 gal 1.90 gal/hr 0.00 gal/nm 0 msl 0 kts
Sat, Jan 20, 2018 MMAN MMAN 10:15 10:17 0.03 hrs 0.00 hrs 0.00 nm 0.00 gal 0.00 gal/hr 0.00 gal/nm 0 msl 0 kts
Fri, Jan 19, 2018 MMCU MMAN 16:17 19:05 2.75 hrs 2.49 hrs 352.12 nm 24.31 gal 8.84 gal/hr 0.07 gal/nm 9704 msl 138 kts
Fri, Jan 19, 2018 MMAN MMCU 11:36 15:09 3.49 hrs 3.04 hrs 361.75 nm 28.31 gal 8.11 gal/hr 0.08 gal/nm 8751 msl 117 kts
Fri, Jan 19, 2018 MMAN MMAN 11:22 11:23 0.02 hrs 0.00 hrs 0.00 nm 0.00 gal 0.00 gal/hr 0.00 gal/nm 0 msl 0 kts
Fri, Jan 12, 2018 MMAN MMAN 11:16 11:24 0.14 hrs 0.00 hrs 0.00 nm 0.24 gal 1.73 gal/hr 0.00 gal/nm 0 msl 0 kts
Fri, Jan 12, 2018 MMAN MMAN 10:20 10:25 0.09 hrs 0.00 hrs 0.00 nm 0.20 gal 2.23 gal/hr 0.00 gal/nm 0 msl 0 kts
Fri, Jan 12, 2018 MMAN MMAN 10:11 10:12 0.02 hrs 0.00 hrs 0.00 nm 0.00 gal 0.00 gal/hr 0.00 gal/nm 0 msl 0 kts
Thu, Jan 4, 2018 MMCV MMAN 14:46 16:19 1.52 hrs 1.30 hrs 167.68 nm 13.45 gal 8.87 gal/hr 0.08 gal/nm 4707 msl 125 kts
Thu, Jan 4, 2018 MMAN MMCV 12:34 14:21 1.73 hrs 1.38 hrs 163.22 nm 14.30 gal 8.27 gal/hr 0.09 gal/nm 3669 msl 114 kts
Thu, Jan 4, 2018 MMAN MMAN 12:01 12:07 0.1 hrs 0.00 hrs 0.00 nm 0.20 gal 2.09 gal/hr 0.00 gal/nm 0 msl 0 kts
Thu, Jan 4, 2018 MMAN MMAN 11:43 11:45 0.03 hrs 0.00 hrs 0.00 nm 0.00 gal 0.00 gal/hr 0.00 gal/nm 0 msl 0 kts
Sun, Dec 24, 2017 MMRX MMAN 15:12 16:24 1.16 hrs 0.93 hrs 118.55 nm 10.77 gal 9.26 gal/hr 0.09 gal/nm 8518 msl 123 kts
Sun, Dec 24, 2017 MMCV MMRX 13:14 14:48 1.53 hrs 1.21 hrs 151.82 nm 12.47 gal 8.18 gal/hr 0.08 gal/nm 9594 msl 122 kts
Sun, Dec 24, 2017 MMAN MMCV 11:04 12:31 1.4 hrs 1.08 hrs 151.29 nm 12.26 gal 8.74 gal/hr 0.08 gal/nm 11535 msl 136 kts
Sun, Dec 24, 2017 MMAN MMAN 10:28 10:33 0.09 hrs 0.00 hrs 0.00 nm 0.16 gal 1.83 gal/hr 0.00 gal/nm 0 msl 0 kts
Sun, Dec 24, 2017 MMAN MMAN 10:20 10:21 0.02 hrs 0.00 hrs 0.00 nm 0.00 gal 0.00 gal/hr 0.00 gal/nm 0 msl 0 kts
Sat, Dec 23, 2017 MMNL MMAN 15:30 16:36 1.09 hrs 0.87 hrs 104.25 nm 9.01 gal 8.24 gal/hr 0.09 gal/nm 4596 msl 118 kts
Sat, Dec 23, 2017 MMAN MMNL 13:32 14:39 1.11 hrs 0.88 hrs 105.32 nm 8.78 gal 7.94 gal/hr 0.08 gal/nm 3611 msl 120 kts
Sat, Dec 23, 2017 MMAN MMAN 13:01 13:06 0.08 hrs 0.00 hrs 0.00 nm 0.16 gal 2.03 gal/hr 0.00 gal/nm 0 msl 0 kts
Sat, Dec 23, 2017 MMAN MMAN 12:29 12:30 0.02 hrs 0.00 hrs 0.00 nm 0.00 gal 0.00 gal/hr 0.00 gal/nm 0 msl 0 kts
Fri, Dec 22, 2017 MMMV MMAN 17:19 18:18 0.96 hrs 0.75 hrs 99.76 nm 7.97 gal 8.35 gal/hr 0.08 gal/nm 7692 msl 129 kts
Fri, Dec 22, 2017 MMAN MMMV 15:59 17:03 1.03 hrs 0.84 hrs 99.73 nm 9.25 gal 8.95 gal/hr 0.09 gal/nm 6668 msl 114 kts
Fri, Dec 22, 2017 MMAN MMAN 15:32 15:46 0.24 hrs 0.00 hrs 0.00 nm 0.28 gal 1.18 gal/hr 0.00 gal/nm 0 msl 0 kts
Fri, Dec 22, 2017 MMRX MMAN 13:53 15:01 1.1 hrs 0.90 hrs 113.35 nm 9.78 gal 8.91 gal/hr 0.09 gal/nm 5538 msl 123 kts
Fri, Dec 22, 2017 MMMV MMRX 11:54 13:35 1.63 hrs 1.40 hrs 190.51 nm 14.48 gal 8.89 gal/hr 0.08 gal/nm 9794 msl 132 kts
Fri, Dec 22, 2017 MMAN MMMV 10:08 11:28 1.3 hrs 0.94 hrs 108.58 nm 10.21 gal 7.84 gal/hr 0.09 gal/nm 6625 msl 112 kts
Fri, Dec 22, 2017 MMAN MMAN 09:55 09:56 0.02 hrs 0.00 hrs 0.00 nm 0.00 gal 0.00 gal/hr 0.00 gal/nm 0 msl 0 kts
Fri, Dec 22, 2017 MMAN MMAN 09:47 09:52 0.09 hrs 0.00 hrs 0.00 nm 0.17 gal 2.00 gal/hr 0.00 gal/nm 0 msl 0 kts
Fri, Dec 22, 2017 MMAN MMAN 09:34 09:36 0.02 hrs 0.00 hrs 0.00 nm 0.00 gal 0.00 gal/hr 0.00 gal/nm 0 msl 0 kts
Thu, Dec 21, 2017 MMMV MMAN 17:51 18:47 0.91 hrs 0.75 hrs 98.35 nm 8.93 gal 9.81 gal/hr 0.09 gal/nm 5720 msl 128 kts
Thu, Dec 21, 2017 MMAN MMMV 16:40 17:46 1.07 hrs 0.74 hrs 99.92 nm 10.06 gal 9.39 gal/hr 0.10 gal/nm 6580 msl 131 kts
Thu, Dec 21, 2017 MMAN MMAN 16:12 16:17 0.09 hrs 0.00 hrs 0.00 nm 0.16 gal 1.75 gal/hr 0.00 gal/nm 0 msl 0 kts
Thu, Dec 21, 2017 MMPG MMAN 13:42 15:33 1.81 hrs 1.57 hrs 178.31 nm 15.87 gal 8.78 gal/hr 0.09 gal/nm 9680 msl 110 kts
Thu, Dec 21, 2017 MMMV MMPG 11:40 12:55 1.24 hrs 0.83 hrs 118.21 nm 8.77 gal 7.09 gal/hr 0.07 gal/nm 7589 msl 139 kts
Thu, Dec 21, 2017     11:10 11:11 0.01 hrs 0.00 hrs 0.00 nm 0.00 gal 0.00 gal/hr 0.00 gal/nm 0 msl 0 kts
Thu, Dec 21, 2017 MMAN MMMV 09:37 10:57 1.3 hrs 0.90 hrs 110.18 nm 10.40 gal 7.99 gal/hr 0.09 gal/nm 6940 msl 119 kts
Thu, Dec 21, 2017 MMAN MMAN 09:27 09:28 0.02 hrs 0.00 hrs 0.00 nm 0.00 gal 0.00 gal/hr 0.00 gal/nm 0 msl 0 kts
Thu, Dec 21, 2017 MMAN MMAN 08:40 08:48 0.14 hrs 0.00 hrs 0.00 nm 0.29 gal 2.07 gal/hr 0.00 gal/nm 0 msl 0 kts
Tue, Dec 19, 2017 MMAN MMAN 16:52 17:03 0.19 hrs 0.00 hrs 0.00 nm 0.57 gal 3.05 gal/hr 0.00 gal/nm 0 msl 0 kts
Tue, Dec 19, 2017     13:15 13:16 0.01 hrs 0.00 hrs 0.00 nm 0.00 gal 0.15 gal/hr 0.00 gal/nm 0 msl 0 kts
Mon, Dec 18, 2017 MMAN MMAN 12:35 12:49 0.23 hrs 0.00 hrs 0.00 nm 0.61 gal 2.65 gal/hr 0.00 gal/nm 0 msl 0 kts
Thu, Dec 14, 2017 MMNL MMAN 16:13 17:23 1.16 hrs 0.95 hrs 117.01 nm 9.49 gal 8.18 gal/hr 0.08 gal/nm 4631 msl 123 kts
Thu, Dec 14, 2017 MMAN MMNL 14:25 15:35 1.16 hrs 0.88 hrs 103.95 nm 9.36 gal 8.08 gal/hr 0.09 gal/nm 5619 msl 117 kts
Thu, Dec 14, 2017 MMMV MMAN 12:20 13:25 1.08 hrs 0.83 hrs 104.34 nm 8.52 gal 7.93 gal/hr 0.08 gal/nm 5712 msl 125 kts
Thu, Dec 14, 2017 MMAN MMMV 10:45 12:04 1.33 hrs 0.91 hrs 105.13 nm 9.61 gal 7.26 gal/hr 0.09 gal/nm 4628 msl 115 kts
Thu, Dec 14, 2017 MMAN MMAN 09:48 09:50 0.04 hrs 0.00 hrs 0.00 nm 0.00 gal 0.00 gal/hr 0.00 gal/nm 0 msl 0 kts
Wed, Dec 13, 2017     17:51 17:52 0.02 hrs 0.00 hrs 0.00 nm 0.00 gal 0.00 gal/hr 0.00 gal/nm 0 msl 0 kts
Wed, Dec 13, 2017 MMAN MMAN 17:40 17:46 0.11 hrs 0.00 hrs 0.00 nm 0.16 gal 1.48 gal/hr 0.00 gal/nm 0 msl 0 kts
Wed, Dec 13, 2017 MMAN MMAN 17:25 17:26 0.02 hrs 0.00 hrs 0.00 nm 0.00 gal 0.00 gal/hr 0.00 gal/nm 0 msl 0 kts
Wed, Dec 13, 2017 MMCV MMAN 15:37 17:13 1.57 hrs 1.43 hrs 183.70 nm 14.79 gal 9.43 gal/hr 0.08 gal/nm 4688 msl 125 kts
Wed, Dec 13, 2017 MMTM MMCV 13:48 15:02 1.23 hrs 0.86 hrs 111.95 nm 9.31 gal 7.59 gal/hr 0.08 gal/nm 4676 msl 129 kts
Wed, Dec 13, 2017 MMTM MMTM 12:57 13:00 0.05 hrs 0.00 hrs 0.00 nm 0.10 gal 1.81 gal/hr 0.00 gal/nm 0 msl 0 kts
Wed, Dec 13, 2017 MMAN MMTM 10:15 12:42 2.45 hrs 2.16 hrs 255.51 nm 22.05 gal 9.01 gal/hr 0.09 gal/nm 5703 msl 117 kts
Wed, Dec 13, 2017 MMAN MMAN 09:35 09:37 0.04 hrs 0.00 hrs 0.00 nm 0.00 gal 0.00 gal/hr 0.00 gal/nm 0 msl 0 kts
Tue, Dec 12, 2017 MMRX MMAN 16:00 17:15 1.23 hrs 0.99 hrs 121.21 nm 10.33 gal 8.42 gal/hr 0.09 gal/nm 6582 msl 119 kts
Tue, Dec 12, 2017 MMAN MMRX 14:12 15:22 1.13 hrs 0.91 hrs 116.56 nm 9.31 gal 8.25 gal/hr 0.08 gal/nm 5614 msl 125 kts
Tue, Dec 12, 2017 MMAN MMAN 13:33 13:45 0.2 hrs 0.00 hrs 0.00 nm 0.36 gal 1.80 gal/hr 0.00 gal/nm 0 msl 0 kts
Tue, Dec 12, 2017 MMAN MMAN 13:13 13:14 0.02 hrs 0.00 hrs 0.00 nm 0.00 gal 0.00 gal/hr 0.00 gal/nm 0 msl 0 kts
Mon, Dec 11, 2017 MMNL MMAN 19:35 20:41 1.09 hrs 0.86 hrs 103.34 nm 9.33 gal 8.59 gal/hr 0.09 gal/nm 8148 msl 119 kts
Mon, Dec 11, 2017 MMAN MMNL 17:24 18:57 1.53 hrs 1.17 hrs 142.71 nm 11.67 gal 7.61 gal/hr 0.08 gal/nm 9098 msl 121 kts
Mon, Dec 11, 2017 MMAN MMAN 17:02 17:03 0.02 hrs 0.00 hrs 0.00 nm 0.00 gal 0.00 gal/hr 0.00 gal/nm 0 msl 0 kts
Mon, Dec 11, 2017 MMAN MMAN 14:29 14:30 0.03 hrs 0.00 hrs 0.00 nm 0.00 gal 0.00 gal/hr 0.00 gal/nm 0 msl 0 kts
Mon, Dec 11, 2017 MMMV MMAN 12:59 14:04 1.08 hrs 0.91 hrs 110.50 nm 9.43 gal 8.72 gal/hr 0.09 gal/nm 5639 msl 122 kts
Mon, Dec 11, 2017 MMAN MMMV 10:34 12:38 2.08 hrs 1.70 hrs 191.72 nm 17.63 gal 8.50 gal/hr 0.09 gal/nm 4736 msl 113 kts
Mon, Dec 11, 2017 MMAN MMAN 09:55 09:58 0.05 hrs 0.00 hrs 0.00 nm 0.00 gal 0.00 gal/hr 0.00 gal/nm 0 msl 0 kts
Sun, Dec 10, 2017 MMRX MMAN 18:20 19:33 1.2 hrs 0.97 hrs 118.48 nm 10.57 gal 8.78 gal/hr 0.09 gal/nm 8205 msl 120 kts
Sun, Dec 10, 2017 MMRX MMRX 17:56 17:57 0.01 hrs 0.00 hrs 0.00 nm 0.00 gal 0.00 gal/hr 0.00 gal/nm 0 msl 0 kts
Sun, Dec 10, 2017 MMAN MMRX 16:29 17:56 1.46 hrs 0.95 hrs 118.67 nm 11.45 gal 7.87 gal/hr 0.10 gal/nm 5622 msl 125 kts
Sun, Dec 10, 2017 MMAN MMAN 16:12 16:13 0.03 hrs 0.00 hrs 0.00 nm 0.00 gal 0.00 gal/hr 0.00 gal/nm 0 msl 0 kts
Sun, Dec 10, 2017 MMAN MMAN 16:01 16:02 0.02 hrs 0.00 hrs 0.00 nm 0.00 gal 0.00 gal/hr 0.00 gal/nm 0 msl 0 kts
Sun, Dec 10, 2017 MMMV MMAN 14:49 15:48 0.98 hrs 0.82 hrs 100.50 nm 7.91 gal 8.06 gal/hr 0.08 gal/nm 5666 msl 123 kts
Sun, Dec 10, 2017 MMRX MMMV 12:48 14:30 1.67 hrs 1.43 hrs 186.30 nm 14.99 gal 8.98 gal/hr 0.08 gal/nm 10126 msl 127 kts
Sun, Dec 10, 2017 MMAN MMRX 10:33 12:10 1.59 hrs 1.03 hrs 127.57 nm 10.88 gal 6.83 gal/hr 0.09 gal/nm 9101 msl 121 kts
Sun, Dec 10, 2017 MMAN MMAN 10:24 10:25 0.03 hrs 0.00 hrs 0.00 nm 0.00 gal 0.00 gal/hr 0.00 gal/nm 0 msl 0 kts
Sun, Dec 10, 2017 MMAN MMAN 10:02 10:04 0.03 hrs 0.00 hrs 0.00 nm 0.00 gal 0.00 gal/hr 0.00 gal/nm 0 msl 0 kts
Sat, Dec 9, 2017 MMMA MMAN 17:28 19:05 1.59 hrs 1.37 hrs 163.44 nm 13.92 gal 8.74 gal/hr 0.09 gal/nm 8102 msl 118 kts
Sat, Dec 9, 2017     17:10 17:10 0.01 hrs 0.00 hrs 0.00 nm 0.00 gal 0.00 gal/hr 0.00 gal/nm 0 msl 0 kts
Sat, Dec 9, 2017 MMAN MMMA 15:20 16:49 1.48 hrs 1.19 hrs 157.87 nm 11.94 gal 8.09 gal/hr 0.08 gal/nm 7597 msl 132 kts
Sat, Dec 9, 2017     14:24 14:24 0.01 hrs 0.00 hrs 0.00 nm 0.00 gal 0.00 gal/hr 0.00 gal/nm 0 msl 0 kts
Sat, Dec 9, 2017 MMMV MMAN 13:13 14:13 0.98 hrs 0.80 hrs 106.72 nm 8.86 gal 9.06 gal/hr 0.08 gal/nm 5762 msl 130 kts
Sat, Dec 9, 2017 MMAN MMMV 10:54 12:53 1.98 hrs 1.58 hrs 163.35 nm 16.59 gal 8.37 gal/hr 0.10 gal/nm 5033 msl 103 kts
Sat, Dec 9, 2017 MMAN MMAN 10:38 10:40 0.03 hrs 0.00 hrs 0.00 nm 0.00 gal 0.00 gal/hr 0.00 gal/nm 0 msl 0 kts
Fri, Dec 8, 2017 MMMV MMAN 19:09 20:16 1.11 hrs 0.88 hrs 122.13 nm 9.25 gal 8.37 gal/hr 0.08 gal/nm 9149 msl 136 kts
Fri, Dec 8, 2017     19:01 19:02 0.02 hrs 0.00 hrs 0.00 nm 0.00 gal 0.00 gal/hr 0.00 gal/nm 0 msl 0 kts
Fri, Dec 8, 2017 MMAN MMMV 17:20 18:35 1.24 hrs 0.93 hrs 99.38 nm 9.76 gal 7.88 gal/hr 0.10 gal/nm 4759 msl 105 kts
Fri, Dec 8, 2017 MMAN MMAN 16:12 16:13 0.02 hrs 0.00 hrs 0.00 nm 0.00 gal 0.00 gal/hr 0.00 gal/nm 0 msl 0 kts
Thu, Dec 7, 2017 MMAN MMAN 10:21 10:36 0.25 hrs 0.00 hrs 0.00 nm 0.00 gal 0.00 gal/hr 0.00 gal/nm 0 msl 0 kts
Tue, Dec 5, 2017 MMMV MMAN 14:05 15:06 1.01 hrs 0.81 hrs 101.56 nm 8.39 gal 8.32 gal/hr 0.08 gal/nm 5626 msl 122 kts
Tue, Dec 5, 2017 MMAN MMMV 12:05 13:46 1.64 hrs 1.25 hrs 157.49 nm 13.40 gal 8.20 gal/hr 0.09 gal/nm 10102 msl 123 kts
Tue, Dec 5, 2017 MMAN MMAN 11:03 11:04 0.03 hrs 0.00 hrs 0.00 nm 0.00 gal 0.00 gal/hr 0.00 gal/nm 0 msl 0 kts
Tue, Dec 5, 2017     10:41 10:42 0.01 hrs 0.00 hrs 0.00 nm 0.00 gal 0.00 gal/hr 0.00 gal/nm 0 msl 0 kts
Mon, Dec 4, 2017 MMRX MMAN 16:00 17:18 1.28 hrs 0.97 hrs 121.62 nm 10.53 gal 8.21 gal/hr 0.09 gal/nm 8082 msl 122 kts
Mon, Dec 4, 2017 MMAN MMRX 14:03 15:23 1.31 hrs 0.95 hrs 120.69 nm 10.03 gal 7.63 gal/hr 0.08 gal/nm 9056 msl 125 kts
Mon, Dec 4, 2017 MMAN MMAN 13:42 13:44 0.03 hrs 0.00 hrs 0.00 nm 0.00 gal 0.00 gal/hr 0.00 gal/nm 0 msl 0 kts
Sun, Dec 3, 2017 MMNL MMAN 19:17 20:34 1.28 hrs 0.94 hrs 108.05 nm 10.45 gal 8.19 gal/hr 0.10 gal/nm 10143 msl 114 kts
Sun, Dec 3, 2017 MMAN MMNL 16:57 18:34 1.62 hrs 1.10 hrs 139.39 nm 12.32 gal 7.59 gal/hr 0.09 gal/nm 9104 msl 126 kts
Sun, Dec 3, 2017     16:21 16:22 0.02 hrs 0.00 hrs 0.00 nm 0.00 gal 0.00 gal/hr 0.00 gal/nm 0 msl 0 kts
Sun, Dec 3, 2017 MMMV MMAN 14:31 19:31 1.12 hrs 0.86 hrs 104.37 nm 9.31 gal 8.32 gal/hr 0.09 gal/nm 9859 msl 121 kts
Sun, Dec 3, 2017     14:29 19:29 0.01 hrs 0.00 hrs 0.00 nm 0.00 gal 0.00 gal/hr 0.00 gal/nm 0 msl 0 kts
Sun, Dec 3, 2017     14:28 14:28 0.01 hrs 0.00 hrs 0.00 nm 0.00 gal 0.00 gal/hr 0.00 gal/nm 0 msl 0 kts
Sun, Dec 3, 2017 MMMV MMMV 14:11 14:11 0.01 hrs 0.00 hrs 0.00 nm 0.00 gal 0.00 gal/hr 0.00 gal/nm 0 msl 0 kts
Sun, Dec 3, 2017 MMAN MMMV 11:46 13:52 2.09 hrs 1.57 hrs 177.98 nm 18.23 gal 8.71 gal/hr 0.10 gal/nm 8661 msl 113 kts
Sun, Dec 3, 2017 MMAN MMAN 10:26 10:30 0.06 hrs 0.00 hrs 0.00 nm 0.00 gal 0.00 gal/hr 0.00 gal/nm 0 msl 0 kts
Sun, Dec 3, 2017     10:09 10:10 0.01 hrs 0.00 hrs 0.00 nm 0.00 gal 0.00 gal/hr 0.00 gal/nm 0 msl 0 kts
Sat, Dec 2, 2017 MMNL MMAN 20:22 21:28 1.1 hrs 0.93 hrs 103.56 nm 9.61 gal 8.72 gal/hr 0.09 gal/nm 8083 msl 110 kts
Sat, Dec 2, 2017 MMAN MMNL 18:19 19:43 1.37 hrs 1.07 hrs 140.01 nm 11.37 gal 8.32 gal/hr 0.08 gal/nm 9108 msl 127 kts
Sat, Dec 2, 2017 MMAN MMAN 17:38 17:40 0.04 hrs 0.00 hrs 0.00 nm 0.00 gal 0.00 gal/hr 0.00 gal/nm 0 msl 0 kts
Sat, Dec 2, 2017 MMCV MMAN 15:44 17:10 1.4 hrs 1.20 hrs 160.33 nm 12.61 gal 9.03 gal/hr 0.08 gal/nm 4628 msl 130 kts
Sat, Dec 2, 2017     15:27 15:28 0.02 hrs 0.00 hrs 0.00 nm 0.00 gal 0.00 gal/hr 0.00 gal/nm 0 msl 0 kts
Sat, Dec 2, 2017 MMAN MMCV 13:01 14:51 1.78 hrs 1.45 hrs 164.15 nm 16.07 gal 9.02 gal/hr 0.10 gal/nm 3640 msl 109 kts
Sat, Dec 2, 2017 MMAN MMAN 10:36 10:38 0.03 hrs 0.00 hrs 0.00 nm 0.00 gal 0.00 gal/hr 0.00 gal/nm 0 msl 0 kts
Wed, Nov 29, 2017 MMAN MMAN 16:27 16:40 0.23 hrs 0.00 hrs 0.00 nm 0.67 gal 2.91 gal/hr 0.00 gal/nm 0 msl 0 kts
Wed, Nov 29, 2017     11:31 11:32 0.01 hrs 0.00 hrs 0.00 nm 0.00 gal 0.00 gal/hr 0.00 gal/nm 0 msl 0 kts
Tue, Nov 28, 2017     12:18 12:19 0.02 hrs 0.00 hrs 0.00 nm 0.00 gal 0.24 gal/hr 0.00 gal/nm 0 msl 0 kts
Mon, Nov 27, 2017     16:00 16:01 0.01 hrs 0.00 hrs 0.00 nm 0.00 gal 0.00 gal/hr 0.00 gal/nm 0 msl 0 kts
Mon, Nov 27, 2017 MMAN MMAN 15:45 16:00 0.24 hrs 0.00 hrs 0.00 nm 0.64 gal 2.65 gal/hr 0.00 gal/nm 0 msl 0 kts
Sat, Nov 25, 2017 MMNL MMAN 19:34 20:37 1.06 hrs 0.81 hrs 103.58 nm 8.65 gal 8.20 gal/hr 0.08 gal/nm 8080 msl 127 kts
Sat, Nov 25, 2017 MMAN MMNL 17:32 18:40 1.14 hrs 0.88 hrs 108.77 nm 9.19 gal 8.09 gal/hr 0.08 gal/nm 5628 msl 121 kts
Sat, Nov 25, 2017 MMMV MMAN 13:34 15:07 1.52 hrs 1.14 hrs 151.13 nm 12.12 gal 7.96 gal/hr 0.08 gal/nm 9163 msl 128 kts
Sat, Nov 25, 2017 MMAN MMMV 11:14 13:00 1.72 hrs 1.32 hrs 159.51 nm 13.86 gal 8.08 gal/hr 0.09 gal/nm 10186 msl 117 kts
Sat, Nov 25, 2017 MMAN MMAN 10:21 10:23 0.03 hrs 0.00 hrs 0.00 nm 0.00 gal 0.00 gal/hr 0.00 gal/nm 0 msl 0 kts
Fri, Nov 24, 2017 MMNL MMAN 17:54 18:57 1.05 hrs 0.83 hrs 103.14 nm 9.14 gal 8.71 gal/hr 0.09 gal/nm 8129 msl 123 kts
Fri, Nov 24, 2017 MMAN MMNL 15:55 17:28 1.55 hrs 1.16 hrs 142.52 nm 12.03 gal 7.78 gal/hr 0.08 gal/nm 9134 msl 122 kts
Fri, Nov 24, 2017 MMAN MMAN 14:52 14:53 0.03 hrs 0.00 hrs 0.00 nm 0.00 gal 0.00 gal/hr 0.00 gal/nm 0 msl 0 kts
Fri, Nov 24, 2017 MMMA MMAN 11:22 12:52 1.48 hrs 1.25 hrs 151.96 nm 13.44 gal 9.09 gal/hr 0.09 gal/nm 4643 msl 119 kts
Fri, Nov 24, 2017 MMAN MMMA 09:14 10:48 1.53 hrs 1.20 hrs 152.56 nm 12.88 gal 8.40 gal/hr 0.08 gal/nm 3635 msl 125 kts
Fri, Nov 24, 2017 MMAN MMAN 08:46 08:47 0.02 hrs 0.00 hrs 0.00 nm 0.00 gal 0.00 gal/hr 0.00 gal/nm 0 msl 0 kts
Thu, Nov 23, 2017 MMRX MMAN 19:39 20:57 1.3 hrs 1.02 hrs 120.48 nm 10.82 gal 8.35 gal/hr 0.09 gal/nm 8079 msl 118 kts
Thu, Nov 23, 2017 MMAN MMRX 17:36 18:54 1.27 hrs 0.93 hrs 114.56 nm 10.13 gal 7.96 gal/hr 0.09 gal/nm 3624 msl 120 kts
Thu, Nov 23, 2017     16:46 16:46 0.01 hrs 0.00 hrs 0.00 nm 0.00 gal 0.00 gal/hr 0.00 gal/nm 0 msl 0 kts
Thu, Nov 23, 2017 MMAN MMAN 16:44 16:45 0.02 hrs 0.00 hrs 0.00 nm 0.00 gal 0.00 gal/hr 0.00 gal/nm 0 msl 0 kts
Thu, Nov 23, 2017 MMNL MMAN 14:32 15:48 1.26 hrs 0.85 hrs 103.91 nm 8.74 gal 6.96 gal/hr 0.08 gal/nm 8226 msl 120 kts
Thu, Nov 23, 2017 MMAN MMNL 12:23 13:54 1.52 hrs 1.10 hrs 129.30 nm 11.36 gal 7.47 gal/hr 0.09 gal/nm 9186 msl 116 kts
Thu, Nov 23, 2017 MMAN MMAN 12:04 12:06 0.04 hrs 0.00 hrs 0.00 nm 0.01 gal 0.31 gal/hr 0.00 gal/nm 0 msl 0 kts
Wed, Nov 22, 2017     17:49 17:50 0.01 hrs 0.00 hrs 0.00 nm 0.00 gal 0.34 gal/hr 0.00 gal/nm 0 msl 0 kts
Wed, Nov 22, 2017     17:23 17:24 0.02 hrs 0.00 hrs 0.00 nm 0.00 gal 0.00 gal/hr 0.00 gal/nm 0 msl 0 kts
Wed, Nov 22, 2017     16:46 16:48 0.03 hrs 0.00 hrs 0.00 nm 0.00 gal 0.00 gal/hr 0.00 gal/nm 0 msl 0 kts
Wed, Nov 22, 2017     12:24 12:25 0.02 hrs 0.00 hrs 0.00 nm 0.00 gal 0.00 gal/hr 0.00 gal/nm 0 msl 0 kts
Wed, Nov 22, 2017     11:19 11:19 0.02 hrs 0.00 hrs 0.00 nm 0.00 gal 0.00 gal/hr 0.00 gal/nm 0 msl 0 kts
Tue, Nov 21, 2017     17:48 17:50 0.03 hrs 0.00 hrs 0.00 nm 0.00 gal 0.00 gal/hr 0.00 gal/nm 0 msl 0 kts
Tue, Nov 21, 2017     17:23 17:24 0.02 hrs 0.00 hrs 0.00 nm 0.00 gal 0.00 gal/hr 0.00 gal/nm 0 msl 0 kts
Tue, Nov 21, 2017     17:03 17:04 0.02 hrs 0.00 hrs 0.00 nm 0.00 gal 0.00 gal/hr 0.00 gal/nm 0 msl 0 kts
Sun, Nov 19, 2017 MMAN MMAN 14:29 14:32 0.06 hrs 0.00 hrs 0.00 nm 0.00 gal 0.00 gal/hr 0.00 gal/nm 0 msl 0 kts
Sun, Nov 19, 2017 MMAN MMAN 08:45 08:47 0.03 hrs 0.00 hrs 0.00 nm 0.00 gal 0.00 gal/hr 0.00 gal/nm 0 msl 0 kts
Sat, Nov 18, 2017 MMAN MMAN 18:15 18:23 0.13 hrs 0.00 hrs 0.00 nm 0.00 gal 0.00 gal/hr 0.00 gal/nm 0 msl 0 kts
Sat, Nov 18, 2017 MMCV MMAN 16:06 17:55 1.76 hrs 1.46 hrs 160.75 nm 16.91 gal 9.60 gal/hr 0.11 gal/nm 4712 msl 106 kts
Sat, Nov 18, 2017 MMAN MMCV 14:11 15:40 1.44 hrs 1.11 hrs 153.71 nm 12.22 gal 8.47 gal/hr 0.08 gal/nm 3694 msl 132 kts
Sat, Nov 18, 2017 MMAN MMAN 13:37 13:39 0.03 hrs 0.00 hrs 0.00 nm 0.00 gal 0.00 gal/hr 0.00 gal/nm 0 msl 0 kts
Sat, Nov 18, 2017 MMRX MMAN 11:42 13:04 1.33 hrs 1.07 hrs 125.55 nm 11.31 gal 8.49 gal/hr 0.09 gal/nm 6612 msl 114 kts
Sat, Nov 18, 2017 MMAN MMRX 09:49 11:01 1.17 hrs 0.87 hrs 114.72 nm 9.20 gal 7.89 gal/hr 0.08 gal/nm 5704 msl 128 kts
Sat, Nov 18, 2017 MMAN MMAN 09:20 09:21 0.03 hrs 0.00 hrs 0.00 nm 0.00 gal 0.00 gal/hr 0.00 gal/nm 0 msl 0 kts
Fri, Nov 17, 2017     17:26 17:27 0.02 hrs 0.00 hrs 0.00 nm 0.00 gal 0.00 gal/hr 0.00 gal/nm 0 msl 0 kts
Fri, Nov 17, 2017 MMAN MMAN 16:35 16:38 0.04 hrs 0.00 hrs 0.00 nm 0.00 gal 0.00 gal/hr 0.00 gal/nm 0 msl 0 kts
Fri, Nov 17, 2017 MMRX MMAN 15:03 16:27 1.38 hrs 1.15 hrs 143.49 nm 11.89 gal 8.65 gal/hr 0.08 gal/nm 8161 msl 123 kts
Fri, Nov 17, 2017 MMAN MMRX 12:48 14:19 1.48 hrs 1.06 hrs 128.20 nm 11.49 gal 7.76 gal/hr 0.09 gal/nm 9058 msl 119 kts
Fri, Nov 17, 2017 MMAN MMAN 10:49 10:53 0.07 hrs 0.00 hrs 0.00 nm 0.00 gal 0.00 gal/hr 0.00 gal/nm 0 msl 0 kts
Thu, Nov 16, 2017 MMNL MMAN 19:32 20:55 1.37 hrs 1.16 hrs 144.59 nm 12.30 gal 8.97 gal/hr 0.09 gal/nm 8143 msl 122 kts
Thu, Nov 16, 2017 MMAN MMNL 17:33 18:48 1.24 hrs 0.93 hrs 112.76 nm 9.95 gal 8.00 gal/hr 0.09 gal/nm 7606 msl 121 kts
Thu, Nov 16, 2017 MMAN MMAN 16:32 16:33 0.02 hrs 0.00 hrs 0.00 nm 0.00 gal 0.00 gal/hr 0.00 gal/nm 0 msl 0 kts
Thu, Nov 16, 2017 MMMV MMAN 14:11 15:23 1.19 hrs 0.89 hrs 101.78 nm 8.78 gal 7.36 gal/hr 0.09 gal/nm 5756 msl 115 kts
Thu, Nov 16, 2017 MMAN MMMV 11:41 13:35 1.9 hrs 1.48 hrs 170.66 nm 15.41 gal 8.12 gal/hr 0.09 gal/nm 4697 msl 115 kts
Thu, Nov 16, 2017 MMAN MMAN 11:00 11:02 0.04 hrs 0.00 hrs 0.00 nm 0.00 gal 0.00 gal/hr 0.00 gal/nm 0 msl